<?xml version="1.0" encoding="UTF-8" standalone="no" ?>
<gpx xmlns="http://www.topografix.com/GPX/1/1" xmlns:xsi="http://www.w3.org/2001/XMLSchema-instance" xsi:schemaLocation="http://www.topografix.com/GPX/1/1 http://www.topografix.com/GPX/1/1/gpx.xsd" version="1.1" creator="VisuGPX - https://www.visugpx.com">
  <metadata>
    <name>carole st Michel des loups Granville 1</name>
    <desc><![CDATA[13:58:51

Metadata:
Nom: exp_carole st Michel des loups Granville.gpx
Auteur: Mobile User
Description: (null)
{DC1}Heure de fin	: 19:15:05
Durée totale	: 5h16:14
Moyenne globale	: 5.1 km/h
Pente moyenne	: 2.72 %
Aire incluse	: 1865.7311 ha
Bornes emprise	: 48.8050 -1.5841 ; 48.7410 -1.4946
Détails par segments
distance  | durée    | vit.moy. | vit.max. | déniv. + | déniv -
   km     | hh:mn:ss |   km/h   |   km/h   |    m     |    m
    26.99 | 05:16:14 |      5.1 |     25.9 |      365 |     -368{DC2}

Metadata:
Nom: 
Auteur: liste traces
Description: (null)
comment ...
Groupe d'origine : [nouvelles]
Groupe d'origine : Carolles granville]]></desc>
  </metadata>
  <trk>
    <name><![CDATA[carole st Michel des loups Granville 1]]></name>
    <cmt><![CDATA[13:58:51]]></cmt>
    <desc><![CDATA[Metadata:
Nom: exp_carole st Michel des loups Granville.gpx
Auteur: Mobile User
Description: (null)
{DC1}Heure de fin	: 19:15:05
Durée totale	: 5h16:14
Moyenne globale	: 5.1 km/h
Pente moyenne	: 2.72 %
Aire incluse	: 1865.7311 ha
Bornes emprise	: 48.8050 -1.5841 ; 48.7410 -1.4946
Détails par segments
distance  | durée    | vit.moy. | vit.max. | déniv. + | déniv -
   km     | hh:mn:ss |   km/h   |   km/h   |    m     |    m
    26.99 | 05:16:14 |      5.1 |     25.9 |      365 |     -368{DC2}

Metadata:
Nom: 
Auteur: liste traces
Description: (null)
comment ...
Groupe d'origine : [nouvelles]
Groupe d'origine : Carolles granville]]></desc>
    <trkseg>
      <trkpt lat="48.74478" lon="-1.54037">
        <ele>65</ele>
        <time>2020-09-08T11:58:51Z</time>
      </trkpt>
      <trkpt lat="48.74479" lon="-1.54038">
        <ele>65</ele>
        <time>2020-09-08T11:58:52Z</time>
      </trkpt>
      <trkpt lat="48.74507" lon="-1.54061">
        <ele>64</ele>
        <time>2020-09-08T11:59:21Z</time>
      </trkpt>
      <trkpt lat="48.74517" lon="-1.54067">
        <ele>63</ele>
        <time>2020-09-08T11:59:31Z</time>
      </trkpt>
      <trkpt lat="48.74528" lon="-1.54069">
        <ele>65</ele>
        <time>2020-09-08T11:59:45Z</time>
      </trkpt>
      <trkpt lat="48.7454" lon="-1.54078">
        <ele>66</ele>
        <time>2020-09-08T11:59:56Z</time>
      </trkpt>
      <trkpt lat="48.74595" lon="-1.54093">
        <ele>71</ele>
        <time>2020-09-08T12:00:45Z</time>
      </trkpt>
      <trkpt lat="48.74621" lon="-1.54109">
        <ele>71</ele>
        <time>2020-09-08T12:01:09Z</time>
      </trkpt>
      <trkpt lat="48.74655" lon="-1.54125">
        <ele>73</ele>
        <time>2020-09-08T12:01:40Z</time>
      </trkpt>
      <trkpt lat="48.74682" lon="-1.54142">
        <ele>72</ele>
        <time>2020-09-08T12:02:06Z</time>
      </trkpt>
      <trkpt lat="48.74701" lon="-1.54155">
        <ele>69</ele>
        <time>2020-09-08T12:02:25Z</time>
      </trkpt>
      <trkpt lat="48.74727" lon="-1.54169">
        <ele>68</ele>
        <time>2020-09-08T12:02:47Z</time>
      </trkpt>
      <trkpt lat="48.74738" lon="-1.54168">
        <ele>68</ele>
        <time>2020-09-08T12:02:57Z</time>
      </trkpt>
      <trkpt lat="48.74752" lon="-1.5415">
        <ele>72</ele>
        <time>2020-09-08T12:03:13Z</time>
      </trkpt>
      <trkpt lat="48.7476" lon="-1.54141">
        <ele>72</ele>
        <time>2020-09-08T12:03:21Z</time>
      </trkpt>
      <trkpt lat="48.74763" lon="-1.54131">
        <ele>73</ele>
        <time>2020-09-08T12:03:27Z</time>
      </trkpt>
      <trkpt lat="48.74772" lon="-1.54063">
        <ele>71</ele>
        <time>2020-09-08T12:04:08Z</time>
      </trkpt>
      <trkpt lat="48.74779" lon="-1.54028">
        <ele>70</ele>
        <time>2020-09-08T12:04:28Z</time>
      </trkpt>
      <trkpt lat="48.74783" lon="-1.54018">
        <ele>71</ele>
        <time>2020-09-08T12:04:35Z</time>
      </trkpt>
      <trkpt lat="48.74785" lon="-1.54007">
        <ele>71</ele>
        <time>2020-09-08T12:04:41Z</time>
      </trkpt>
      <trkpt lat="48.74797" lon="-1.53967">
        <ele>68</ele>
        <time>2020-09-08T12:05:06Z</time>
      </trkpt>
      <trkpt lat="48.74807" lon="-1.53961">
        <ele>68</ele>
        <time>2020-09-08T12:05:18Z</time>
      </trkpt>
      <trkpt lat="48.74825" lon="-1.53963">
        <ele>68</ele>
        <time>2020-09-08T12:05:33Z</time>
      </trkpt>
      <trkpt lat="48.74837" lon="-1.53962">
        <ele>67</ele>
        <time>2020-09-08T12:05:46Z</time>
      </trkpt>
      <trkpt lat="48.74845" lon="-1.53963">
        <ele>68</ele>
        <time>2020-09-08T12:05:52Z</time>
      </trkpt>
      <trkpt lat="48.74865" lon="-1.53972">
        <ele>69</ele>
        <time>2020-09-08T12:06:08Z</time>
      </trkpt>
      <trkpt lat="48.74873" lon="-1.5397">
        <ele>68</ele>
        <time>2020-09-08T12:06:15Z</time>
      </trkpt>
      <trkpt lat="48.74878" lon="-1.53961">
        <ele>69</ele>
        <time>2020-09-08T12:06:22Z</time>
      </trkpt>
      <trkpt lat="48.74881" lon="-1.53947">
        <ele>70</ele>
        <time>2020-09-08T12:06:53Z</time>
      </trkpt>
      <trkpt lat="48.74883" lon="-1.53935">
        <ele>70</ele>
        <time>2020-09-08T12:06:59Z</time>
      </trkpt>
      <trkpt lat="48.7489" lon="-1.53928">
        <ele>71</ele>
        <time>2020-09-08T12:07:06Z</time>
      </trkpt>
      <trkpt lat="48.74903" lon="-1.53925">
        <ele>71</ele>
        <time>2020-09-08T12:07:18Z</time>
      </trkpt>
      <trkpt lat="48.74916" lon="-1.5393">
        <ele>69</ele>
        <time>2020-09-08T12:07:29Z</time>
      </trkpt>
      <trkpt lat="48.74924" lon="-1.53931">
        <ele>69</ele>
        <time>2020-09-08T12:07:36Z</time>
      </trkpt>
      <trkpt lat="48.74944" lon="-1.53939">
        <ele>68</ele>
        <time>2020-09-08T12:07:55Z</time>
      </trkpt>
      <trkpt lat="48.74971" lon="-1.53956">
        <ele>69</ele>
        <time>2020-09-08T12:08:20Z</time>
      </trkpt>
      <trkpt lat="48.7499" lon="-1.53969">
        <ele>71</ele>
        <time>2020-09-08T12:08:38Z</time>
      </trkpt>
      <trkpt lat="48.74998" lon="-1.53972">
        <ele>70</ele>
        <time>2020-09-08T12:08:46Z</time>
      </trkpt>
      <trkpt lat="48.75009" lon="-1.5398">
        <ele>70</ele>
        <time>2020-09-08T12:08:57Z</time>
      </trkpt>
      <trkpt lat="48.75016" lon="-1.53985">
        <ele>71</ele>
        <time>2020-09-08T12:09:04Z</time>
      </trkpt>
      <trkpt lat="48.75054" lon="-1.54016">
        <ele>71</ele>
        <time>2020-09-08T12:09:42Z</time>
      </trkpt>
      <trkpt lat="48.75065" lon="-1.54028">
        <ele>71</ele>
        <time>2020-09-08T12:09:55Z</time>
      </trkpt>
      <trkpt lat="48.75079" lon="-1.54037">
        <ele>71</ele>
        <time>2020-09-08T12:10:08Z</time>
      </trkpt>
      <trkpt lat="48.75117" lon="-1.5406">
        <ele>75</ele>
        <time>2020-09-08T12:10:42Z</time>
      </trkpt>
      <trkpt lat="48.75129" lon="-1.54076">
        <ele>74</ele>
        <time>2020-09-08T12:10:56Z</time>
      </trkpt>
      <trkpt lat="48.75145" lon="-1.54087">
        <ele>75</ele>
        <time>2020-09-08T12:11:11Z</time>
      </trkpt>
      <trkpt lat="48.75157" lon="-1.5409">
        <ele>76</ele>
        <time>2020-09-08T12:11:20Z</time>
      </trkpt>
      <trkpt lat="48.75188" lon="-1.54097">
        <ele>76</ele>
        <time>2020-09-08T12:11:50Z</time>
      </trkpt>
      <trkpt lat="48.75206" lon="-1.54108">
        <ele>78</ele>
        <time>2020-09-08T12:12:07Z</time>
      </trkpt>
      <trkpt lat="48.75215" lon="-1.54117">
        <ele>77</ele>
        <time>2020-09-08T12:12:16Z</time>
      </trkpt>
      <trkpt lat="48.75251" lon="-1.54152">
        <ele>77</ele>
        <time>2020-09-08T12:12:53Z</time>
      </trkpt>
      <trkpt lat="48.7526" lon="-1.5416">
        <ele>76</ele>
        <time>2020-09-08T12:13:02Z</time>
      </trkpt>
      <trkpt lat="48.75266" lon="-1.54171">
        <ele>76</ele>
        <time>2020-09-08T12:13:09Z</time>
      </trkpt>
      <trkpt lat="48.75273" lon="-1.54178">
        <ele>77</ele>
        <time>2020-09-08T12:13:19Z</time>
      </trkpt>
      <trkpt lat="48.75281" lon="-1.54175">
        <ele>77</ele>
        <time>2020-09-08T12:13:28Z</time>
      </trkpt>
      <trkpt lat="48.75283" lon="-1.54164">
        <ele>78</ele>
        <time>2020-09-08T12:13:36Z</time>
      </trkpt>
      <trkpt lat="48.7529" lon="-1.5415">
        <ele>79</ele>
        <time>2020-09-08T12:15:50Z</time>
      </trkpt>
      <trkpt lat="48.753" lon="-1.54133">
        <ele>78</ele>
        <time>2020-09-08T12:16:03Z</time>
      </trkpt>
      <trkpt lat="48.75316" lon="-1.54105">
        <ele>79</ele>
        <time>2020-09-08T12:16:22Z</time>
      </trkpt>
      <trkpt lat="48.75329" lon="-1.54085">
        <ele>81</ele>
        <time>2020-09-08T12:16:33Z</time>
      </trkpt>
      <trkpt lat="48.7534" lon="-1.54058">
        <ele>84</ele>
        <time>2020-09-08T12:16:50Z</time>
      </trkpt>
      <trkpt lat="48.75349" lon="-1.54042">
        <ele>84</ele>
        <time>2020-09-08T12:17:00Z</time>
      </trkpt>
      <trkpt lat="48.75374" lon="-1.53989">
        <ele>78</ele>
        <time>2020-09-08T12:17:46Z</time>
      </trkpt>
      <trkpt lat="48.75397" lon="-1.53938">
        <ele>81</ele>
        <time>2020-09-08T12:18:18Z</time>
      </trkpt>
      <trkpt lat="48.75401" lon="-1.53929">
        <ele>81</ele>
        <time>2020-09-08T12:18:24Z</time>
      </trkpt>
      <trkpt lat="48.75428" lon="-1.53887">
        <ele>86</ele>
        <time>2020-09-08T12:18:59Z</time>
      </trkpt>
      <trkpt lat="48.75434" lon="-1.53867">
        <ele>88</ele>
        <time>2020-09-08T12:19:10Z</time>
      </trkpt>
      <trkpt lat="48.75446" lon="-1.53842">
        <ele>84</ele>
        <time>2020-09-08T12:19:31Z</time>
      </trkpt>
      <trkpt lat="48.75455" lon="-1.53821">
        <ele>86</ele>
        <time>2020-09-08T12:19:42Z</time>
      </trkpt>
      <trkpt lat="48.75482" lon="-1.53755">
        <ele>84</ele>
        <time>2020-09-08T12:20:20Z</time>
      </trkpt>
      <trkpt lat="48.75506" lon="-1.53697">
        <ele>83</ele>
        <time>2020-09-08T12:20:54Z</time>
      </trkpt>
      <trkpt lat="48.75519" lon="-1.53673">
        <ele>82</ele>
        <time>2020-09-08T12:21:10Z</time>
      </trkpt>
      <trkpt lat="48.75532" lon="-1.53647">
        <ele>85</ele>
        <time>2020-09-08T12:21:28Z</time>
      </trkpt>
      <trkpt lat="48.75538" lon="-1.53635">
        <ele>85</ele>
        <time>2020-09-08T12:21:36Z</time>
      </trkpt>
      <trkpt lat="48.75547" lon="-1.53617">
        <ele>87</ele>
        <time>2020-09-08T12:21:48Z</time>
      </trkpt>
      <trkpt lat="48.75567" lon="-1.53566">
        <ele>86</ele>
        <time>2020-09-08T12:22:19Z</time>
      </trkpt>
      <trkpt lat="48.75593" lon="-1.5351">
        <ele>86</ele>
        <time>2020-09-08T12:22:55Z</time>
      </trkpt>
      <trkpt lat="48.75621" lon="-1.5345">
        <ele>80</ele>
        <time>2020-09-08T12:23:29Z</time>
      </trkpt>
      <trkpt lat="48.75628" lon="-1.53428">
        <ele>83</ele>
        <time>2020-09-08T12:23:35Z</time>
      </trkpt>
      <trkpt lat="48.75658" lon="-1.53364">
        <ele>83</ele>
        <time>2020-09-08T12:23:53Z</time>
      </trkpt>
      <trkpt lat="48.75666" lon="-1.53345">
        <ele>85</ele>
        <time>2020-09-08T12:24:00Z</time>
      </trkpt>
      <trkpt lat="48.75671" lon="-1.53332">
        <ele>84</ele>
        <time>2020-09-08T12:24:04Z</time>
      </trkpt>
      <trkpt lat="48.75729" lon="-1.5322">
        <ele>83</ele>
        <time>2020-09-08T12:24:35Z</time>
      </trkpt>
      <trkpt lat="48.75778" lon="-1.53125">
        <ele>86</ele>
        <time>2020-09-08T12:25:06Z</time>
      </trkpt>
      <trkpt lat="48.75786" lon="-1.53109">
        <ele>88</ele>
        <time>2020-09-08T12:25:11Z</time>
      </trkpt>
      <trkpt lat="48.75811" lon="-1.53057">
        <ele>87</ele>
        <time>2020-09-08T12:25:25Z</time>
      </trkpt>
      <trkpt lat="48.75821" lon="-1.53037">
        <ele>88</ele>
        <time>2020-09-08T12:25:31Z</time>
      </trkpt>
      <trkpt lat="48.75839" lon="-1.52999">
        <ele>85</ele>
        <time>2020-09-08T12:25:40Z</time>
      </trkpt>
      <trkpt lat="48.75888" lon="-1.52897">
        <ele>84</ele>
        <time>2020-09-08T12:26:10Z</time>
      </trkpt>
      <trkpt lat="48.75918" lon="-1.52846">
        <ele>95</ele>
        <time>2020-09-08T12:26:41Z</time>
      </trkpt>
      <trkpt lat="48.75928" lon="-1.52835">
        <ele>96</ele>
        <time>2020-09-08T12:26:52Z</time>
      </trkpt>
      <trkpt lat="48.75933" lon="-1.5282">
        <ele>97</ele>
        <time>2020-09-08T12:27:02Z</time>
      </trkpt>
      <trkpt lat="48.7594" lon="-1.52812">
        <ele>95</ele>
        <time>2020-09-08T12:27:11Z</time>
      </trkpt>
      <trkpt lat="48.75962" lon="-1.52784">
        <ele>98</ele>
        <time>2020-09-08T12:27:37Z</time>
      </trkpt>
      <trkpt lat="48.75975" lon="-1.52779">
        <ele>95</ele>
        <time>2020-09-08T12:27:51Z</time>
      </trkpt>
      <trkpt lat="48.76019" lon="-1.528">
        <ele>96</ele>
        <time>2020-09-08T12:28:27Z</time>
      </trkpt>
      <trkpt lat="48.76025" lon="-1.52805">
        <ele>96</ele>
        <time>2020-09-08T12:28:33Z</time>
      </trkpt>
      <trkpt lat="48.76036" lon="-1.52809">
        <ele>98</ele>
        <time>2020-09-08T12:28:42Z</time>
      </trkpt>
      <trkpt lat="48.76075" lon="-1.52823">
        <ele>99</ele>
        <time>2020-09-08T12:29:15Z</time>
      </trkpt>
      <trkpt lat="48.76093" lon="-1.5283">
        <ele>99</ele>
        <time>2020-09-08T12:29:29Z</time>
      </trkpt>
      <trkpt lat="48.76119" lon="-1.52839">
        <ele>102</ele>
        <time>2020-09-08T12:29:49Z</time>
      </trkpt>
      <trkpt lat="48.76134" lon="-1.52844">
        <ele>102</ele>
        <time>2020-09-08T12:30:01Z</time>
      </trkpt>
      <trkpt lat="48.76147" lon="-1.5285">
        <ele>98</ele>
        <time>2020-09-08T12:30:13Z</time>
      </trkpt>
      <trkpt lat="48.76177" lon="-1.52878">
        <ele>96</ele>
        <time>2020-09-08T12:30:42Z</time>
      </trkpt>
      <trkpt lat="48.76185" lon="-1.52883">
        <ele>94</ele>
        <time>2020-09-08T12:30:50Z</time>
      </trkpt>
      <trkpt lat="48.76215" lon="-1.52914">
        <ele>95</ele>
        <time>2020-09-08T12:31:21Z</time>
      </trkpt>
      <trkpt lat="48.76229" lon="-1.52979">
        <ele>89</ele>
        <time>2020-09-08T12:32:03Z</time>
      </trkpt>
      <trkpt lat="48.76234" lon="-1.52996">
        <ele>88</ele>
        <time>2020-09-08T12:32:13Z</time>
      </trkpt>
      <trkpt lat="48.76243" lon="-1.53021">
        <ele>88</ele>
        <time>2020-09-08T12:32:27Z</time>
      </trkpt>
      <trkpt lat="48.76258" lon="-1.53017">
        <ele>89</ele>
        <time>2020-09-08T12:32:41Z</time>
      </trkpt>
      <trkpt lat="48.76275" lon="-1.53008">
        <ele>93</ele>
        <time>2020-09-08T12:32:55Z</time>
      </trkpt>
      <trkpt lat="48.76294" lon="-1.53007">
        <ele>94</ele>
        <time>2020-09-08T12:33:14Z</time>
      </trkpt>
      <trkpt lat="48.76312" lon="-1.53006">
        <ele>91</ele>
        <time>2020-09-08T12:33:29Z</time>
      </trkpt>
      <trkpt lat="48.76326" lon="-1.53011">
        <ele>89</ele>
        <time>2020-09-08T12:33:42Z</time>
      </trkpt>
      <trkpt lat="48.7634" lon="-1.53012">
        <ele>88</ele>
        <time>2020-09-08T12:33:54Z</time>
      </trkpt>
      <trkpt lat="48.76369" lon="-1.52958">
        <ele>92</ele>
        <time>2020-09-08T12:34:31Z</time>
      </trkpt>
      <trkpt lat="48.76373" lon="-1.52946">
        <ele>91</ele>
        <time>2020-09-08T12:34:39Z</time>
      </trkpt>
      <trkpt lat="48.76379" lon="-1.52941">
        <ele>90</ele>
        <time>2020-09-08T12:34:45Z</time>
      </trkpt>
      <trkpt lat="48.76409" lon="-1.52901">
        <ele>91</ele>
        <time>2020-09-08T12:35:17Z</time>
      </trkpt>
      <trkpt lat="48.76432" lon="-1.52878">
        <ele>91</ele>
        <time>2020-09-08T12:35:42Z</time>
      </trkpt>
      <trkpt lat="48.76442" lon="-1.52881">
        <ele>91</ele>
        <time>2020-09-08T12:35:53Z</time>
      </trkpt>
      <trkpt lat="48.76457" lon="-1.52872">
        <ele>90</ele>
        <time>2020-09-08T12:36:09Z</time>
      </trkpt>
      <trkpt lat="48.76467" lon="-1.52856">
        <ele>86</ele>
        <time>2020-09-08T12:36:23Z</time>
      </trkpt>
      <trkpt lat="48.76474" lon="-1.52835">
        <ele>86</ele>
        <time>2020-09-08T12:36:39Z</time>
      </trkpt>
      <trkpt lat="48.76482" lon="-1.52815">
        <ele>85</ele>
        <time>2020-09-08T12:36:53Z</time>
      </trkpt>
      <trkpt lat="48.76484" lon="-1.52804">
        <ele>86</ele>
        <time>2020-09-08T12:37:03Z</time>
      </trkpt>
      <trkpt lat="48.76494" lon="-1.52787">
        <ele>87</ele>
        <time>2020-09-08T12:37:17Z</time>
      </trkpt>
      <trkpt lat="48.76498" lon="-1.52774">
        <ele>87</ele>
        <time>2020-09-08T12:37:23Z</time>
      </trkpt>
      <trkpt lat="48.76501" lon="-1.5276">
        <ele>85</ele>
        <time>2020-09-08T12:37:35Z</time>
      </trkpt>
      <trkpt lat="48.76511" lon="-1.52724">
        <ele>83</ele>
        <time>2020-09-08T12:37:52Z</time>
      </trkpt>
      <trkpt lat="48.76508" lon="-1.52694">
        <ele>79</ele>
        <time>2020-09-08T12:38:08Z</time>
      </trkpt>
      <trkpt lat="48.76507" lon="-1.52675">
        <ele>79</ele>
        <time>2020-09-08T12:38:22Z</time>
      </trkpt>
      <trkpt lat="48.76511" lon="-1.52664">
        <ele>80</ele>
        <time>2020-09-08T12:38:28Z</time>
      </trkpt>
      <trkpt lat="48.76517" lon="-1.5265">
        <ele>80</ele>
        <time>2020-09-08T12:38:37Z</time>
      </trkpt>
      <trkpt lat="48.76528" lon="-1.52635">
        <ele>77</ele>
        <time>2020-09-08T12:38:44Z</time>
      </trkpt>
      <trkpt lat="48.76532" lon="-1.52622">
        <ele>78</ele>
        <time>2020-09-08T12:38:48Z</time>
      </trkpt>
      <trkpt lat="48.76546" lon="-1.52597">
        <ele>78</ele>
        <time>2020-09-08T12:39:03Z</time>
      </trkpt>
      <trkpt lat="48.76582" lon="-1.52536">
        <ele>87</ele>
        <time>2020-09-08T12:39:43Z</time>
      </trkpt>
      <trkpt lat="48.766" lon="-1.52479">
        <ele>93</ele>
        <time>2020-09-08T12:40:13Z</time>
      </trkpt>
      <trkpt lat="48.76613" lon="-1.52441">
        <ele>93</ele>
        <time>2020-09-08T12:40:37Z</time>
      </trkpt>
      <trkpt lat="48.76616" lon="-1.5243">
        <ele>94</ele>
        <time>2020-09-08T12:40:43Z</time>
      </trkpt>
      <trkpt lat="48.76621" lon="-1.52413">
        <ele>94</ele>
        <time>2020-09-08T12:40:53Z</time>
      </trkpt>
      <trkpt lat="48.76624" lon="-1.52401">
        <ele>93</ele>
        <time>2020-09-08T12:40:59Z</time>
      </trkpt>
      <trkpt lat="48.76625" lon="-1.52382">
        <ele>87</ele>
        <time>2020-09-08T12:42:30Z</time>
      </trkpt>
      <trkpt lat="48.7665" lon="-1.52336">
        <ele>95</ele>
        <time>2020-09-08T12:43:00Z</time>
      </trkpt>
      <trkpt lat="48.76658" lon="-1.52325">
        <ele>95</ele>
        <time>2020-09-08T12:43:08Z</time>
      </trkpt>
      <trkpt lat="48.76668" lon="-1.52306">
        <ele>96</ele>
        <time>2020-09-08T12:43:22Z</time>
      </trkpt>
      <trkpt lat="48.76675" lon="-1.52297">
        <ele>98</ele>
        <time>2020-09-08T12:43:28Z</time>
      </trkpt>
      <trkpt lat="48.76711" lon="-1.52251">
        <ele>99</ele>
        <time>2020-09-08T12:44:05Z</time>
      </trkpt>
      <trkpt lat="48.76742" lon="-1.52219">
        <ele>95</ele>
        <time>2020-09-08T12:44:37Z</time>
      </trkpt>
      <trkpt lat="48.76755" lon="-1.52203">
        <ele>93</ele>
        <time>2020-09-08T12:44:51Z</time>
      </trkpt>
      <trkpt lat="48.7676" lon="-1.52192">
        <ele>94</ele>
        <time>2020-09-08T12:44:57Z</time>
      </trkpt>
      <trkpt lat="48.76759" lon="-1.5217">
        <ele>95</ele>
        <time>2020-09-08T12:45:07Z</time>
      </trkpt>
      <trkpt lat="48.76754" lon="-1.52092">
        <ele>94</ele>
        <time>2020-09-08T12:45:44Z</time>
      </trkpt>
      <trkpt lat="48.76751" lon="-1.52068">
        <ele>92</ele>
        <time>2020-09-08T12:45:58Z</time>
      </trkpt>
      <trkpt lat="48.7674" lon="-1.52013">
        <ele>91</ele>
        <time>2020-09-08T12:46:27Z</time>
      </trkpt>
      <trkpt lat="48.76753" lon="-1.52004">
        <ele>85</ele>
        <time>2020-09-08T12:46:48Z</time>
      </trkpt>
      <trkpt lat="48.76761" lon="-1.52006">
        <ele>83</ele>
        <time>2020-09-08T12:46:55Z</time>
      </trkpt>
      <trkpt lat="48.76782" lon="-1.5201">
        <ele>82</ele>
        <time>2020-09-08T12:47:11Z</time>
      </trkpt>
      <trkpt lat="48.76809" lon="-1.52013">
        <ele>84</ele>
        <time>2020-09-08T12:47:34Z</time>
      </trkpt>
      <trkpt lat="48.7683" lon="-1.5201">
        <ele>82</ele>
        <time>2020-09-08T12:47:51Z</time>
      </trkpt>
      <trkpt lat="48.76841" lon="-1.5201">
        <ele>82</ele>
        <time>2020-09-08T12:47:59Z</time>
      </trkpt>
      <trkpt lat="48.76848" lon="-1.5201">
        <ele>80</ele>
        <time>2020-09-08T12:48:06Z</time>
      </trkpt>
      <trkpt lat="48.76858" lon="-1.52012">
        <ele>80</ele>
        <time>2020-09-08T12:48:14Z</time>
      </trkpt>
      <trkpt lat="48.7688" lon="-1.52006">
        <ele>80</ele>
        <time>2020-09-08T12:48:33Z</time>
      </trkpt>
      <trkpt lat="48.76918" lon="-1.51989">
        <ele>77</ele>
        <time>2020-09-08T12:49:03Z</time>
      </trkpt>
      <trkpt lat="48.76961" lon="-1.51991">
        <ele>77</ele>
        <time>2020-09-08T12:49:35Z</time>
      </trkpt>
      <trkpt lat="48.76973" lon="-1.5199">
        <ele>79</ele>
        <time>2020-09-08T12:49:45Z</time>
      </trkpt>
      <trkpt lat="48.76982" lon="-1.51993">
        <ele>79</ele>
        <time>2020-09-08T12:49:52Z</time>
      </trkpt>
      <trkpt lat="48.76991" lon="-1.51995">
        <ele>78</ele>
        <time>2020-09-08T12:49:59Z</time>
      </trkpt>
      <trkpt lat="48.77011" lon="-1.5199">
        <ele>78</ele>
        <time>2020-09-08T12:50:15Z</time>
      </trkpt>
      <trkpt lat="48.77026" lon="-1.5199">
        <ele>77</ele>
        <time>2020-09-08T12:50:27Z</time>
      </trkpt>
      <trkpt lat="48.77042" lon="-1.5199">
        <ele>78</ele>
        <time>2020-09-08T12:50:39Z</time>
      </trkpt>
      <trkpt lat="48.77086" lon="-1.52005">
        <ele>73</ele>
        <time>2020-09-08T12:51:11Z</time>
      </trkpt>
      <trkpt lat="48.77109" lon="-1.52015">
        <ele>69</ele>
        <time>2020-09-08T12:51:29Z</time>
      </trkpt>
      <trkpt lat="48.77117" lon="-1.5202">
        <ele>69</ele>
        <time>2020-09-08T12:51:35Z</time>
      </trkpt>
      <trkpt lat="48.77125" lon="-1.52022">
        <ele>69</ele>
        <time>2020-09-08T12:51:41Z</time>
      </trkpt>
      <trkpt lat="48.77134" lon="-1.52004">
        <ele>73</ele>
        <time>2020-09-08T12:51:51Z</time>
      </trkpt>
      <trkpt lat="48.77135" lon="-1.51982">
        <ele>75</ele>
        <time>2020-09-08T12:52:01Z</time>
      </trkpt>
      <trkpt lat="48.77131" lon="-1.51963">
        <ele>77</ele>
        <time>2020-09-08T12:52:09Z</time>
      </trkpt>
      <trkpt lat="48.77121" lon="-1.51876">
        <ele>71</ele>
        <time>2020-09-08T12:52:36Z</time>
      </trkpt>
      <trkpt lat="48.77113" lon="-1.51862">
        <ele>72</ele>
        <time>2020-09-08T12:52:44Z</time>
      </trkpt>
      <trkpt lat="48.77107" lon="-1.51851">
        <ele>74</ele>
        <time>2020-09-08T12:52:52Z</time>
      </trkpt>
      <trkpt lat="48.77085" lon="-1.51812">
        <ele>74</ele>
        <time>2020-09-08T12:53:17Z</time>
      </trkpt>
      <trkpt lat="48.77078" lon="-1.51783">
        <ele>76</ele>
        <time>2020-09-08T12:53:31Z</time>
      </trkpt>
      <trkpt lat="48.7708" lon="-1.51766">
        <ele>74</ele>
        <time>2020-09-08T12:53:41Z</time>
      </trkpt>
      <trkpt lat="48.77089" lon="-1.51697">
        <ele>75</ele>
        <time>2020-09-08T12:54:27Z</time>
      </trkpt>
      <trkpt lat="48.77086" lon="-1.51685">
        <ele>75</ele>
        <time>2020-09-08T12:54:33Z</time>
      </trkpt>
      <trkpt lat="48.77086" lon="-1.5167">
        <ele>73</ele>
        <time>2020-09-08T12:54:39Z</time>
      </trkpt>
      <trkpt lat="48.77091" lon="-1.51658">
        <ele>73</ele>
        <time>2020-09-08T12:54:47Z</time>
      </trkpt>
      <trkpt lat="48.77095" lon="-1.51631">
        <ele>73</ele>
        <time>2020-09-08T12:55:01Z</time>
      </trkpt>
      <trkpt lat="48.77097" lon="-1.51615">
        <ele>75</ele>
        <time>2020-09-08T12:55:11Z</time>
      </trkpt>
      <trkpt lat="48.77098" lon="-1.51604">
        <ele>75</ele>
        <time>2020-09-08T12:55:15Z</time>
      </trkpt>
      <trkpt lat="48.771" lon="-1.51592">
        <ele>74</ele>
        <time>2020-09-08T12:55:22Z</time>
      </trkpt>
      <trkpt lat="48.77098" lon="-1.51565">
        <ele>72</ele>
        <time>2020-09-08T12:55:35Z</time>
      </trkpt>
      <trkpt lat="48.77112" lon="-1.5146">
        <ele>70</ele>
        <time>2020-09-08T12:56:29Z</time>
      </trkpt>
      <trkpt lat="48.77118" lon="-1.51403">
        <ele>66</ele>
        <time>2020-09-08T12:56:58Z</time>
      </trkpt>
      <trkpt lat="48.77119" lon="-1.51392">
        <ele>67</ele>
        <time>2020-09-08T12:57:02Z</time>
      </trkpt>
      <trkpt lat="48.77117" lon="-1.51381">
        <ele>68</ele>
        <time>2020-09-08T12:57:09Z</time>
      </trkpt>
      <trkpt lat="48.77114" lon="-1.51359">
        <ele>67</ele>
        <time>2020-09-08T12:57:20Z</time>
      </trkpt>
      <trkpt lat="48.77111" lon="-1.51349">
        <ele>66</ele>
        <time>2020-09-08T12:57:26Z</time>
      </trkpt>
      <trkpt lat="48.7711" lon="-1.51327">
        <ele>65</ele>
        <time>2020-09-08T12:57:37Z</time>
      </trkpt>
      <trkpt lat="48.77114" lon="-1.51302">
        <ele>64</ele>
        <time>2020-09-08T12:57:49Z</time>
      </trkpt>
      <trkpt lat="48.77118" lon="-1.51293">
        <ele>61</ele>
        <time>2020-09-08T12:57:55Z</time>
      </trkpt>
      <trkpt lat="48.77129" lon="-1.51273">
        <ele>61</ele>
        <time>2020-09-08T12:58:09Z</time>
      </trkpt>
      <trkpt lat="48.77128" lon="-1.51261">
        <ele>59</ele>
        <time>2020-09-08T12:58:13Z</time>
      </trkpt>
      <trkpt lat="48.77116" lon="-1.51251">
        <ele>54</ele>
        <time>2020-09-08T12:58:37Z</time>
      </trkpt>
      <trkpt lat="48.7713" lon="-1.51173">
        <ele>59</ele>
        <time>2020-09-08T12:59:06Z</time>
      </trkpt>
      <trkpt lat="48.77127" lon="-1.51161">
        <ele>61</ele>
        <time>2020-09-08T12:59:11Z</time>
      </trkpt>
      <trkpt lat="48.77119" lon="-1.51127">
        <ele>56</ele>
        <time>2020-09-08T12:59:25Z</time>
      </trkpt>
      <trkpt lat="48.77115" lon="-1.51107">
        <ele>58</ele>
        <time>2020-09-08T12:59:34Z</time>
      </trkpt>
      <trkpt lat="48.77104" lon="-1.51081">
        <ele>56</ele>
        <time>2020-09-08T12:59:41Z</time>
      </trkpt>
      <trkpt lat="48.77098" lon="-1.51072">
        <ele>56</ele>
        <time>2020-09-08T12:59:44Z</time>
      </trkpt>
      <trkpt lat="48.77099" lon="-1.51051">
        <ele>57</ele>
        <time>2020-09-08T12:59:51Z</time>
      </trkpt>
      <trkpt lat="48.77103" lon="-1.51036">
        <ele>59</ele>
        <time>2020-09-08T12:59:55Z</time>
      </trkpt>
      <trkpt lat="48.77102" lon="-1.5101">
        <ele>60</ele>
        <time>2020-09-08T13:00:01Z</time>
      </trkpt>
      <trkpt lat="48.77099" lon="-1.50961">
        <ele>60</ele>
        <time>2020-09-08T13:00:11Z</time>
      </trkpt>
      <trkpt lat="48.77105" lon="-1.50928">
        <ele>62</ele>
        <time>2020-09-08T13:00:22Z</time>
      </trkpt>
      <trkpt lat="48.77105" lon="-1.50915">
        <ele>61</ele>
        <time>2020-09-08T13:00:25Z</time>
      </trkpt>
      <trkpt lat="48.77103" lon="-1.50872">
        <ele>61</ele>
        <time>2020-09-08T13:00:34Z</time>
      </trkpt>
      <trkpt lat="48.77108" lon="-1.50854">
        <ele>61</ele>
        <time>2020-09-08T13:00:39Z</time>
      </trkpt>
      <trkpt lat="48.77126" lon="-1.50824">
        <ele>60</ele>
        <time>2020-09-08T13:00:49Z</time>
      </trkpt>
      <trkpt lat="48.77136" lon="-1.50785">
        <ele>61</ele>
        <time>2020-09-08T13:00:59Z</time>
      </trkpt>
      <trkpt lat="48.7717" lon="-1.50696">
        <ele>69</ele>
        <time>2020-09-08T13:01:35Z</time>
      </trkpt>
      <trkpt lat="48.77175" lon="-1.50683">
        <ele>71</ele>
        <time>2020-09-08T13:01:42Z</time>
      </trkpt>
      <trkpt lat="48.77196" lon="-1.50634">
        <ele>74</ele>
        <time>2020-09-08T13:02:09Z</time>
      </trkpt>
      <trkpt lat="48.772" lon="-1.50623">
        <ele>74</ele>
        <time>2020-09-08T13:02:15Z</time>
      </trkpt>
      <trkpt lat="48.772" lon="-1.50611">
        <ele>76</ele>
        <time>2020-09-08T13:02:21Z</time>
      </trkpt>
      <trkpt lat="48.77203" lon="-1.50596">
        <ele>77</ele>
        <time>2020-09-08T13:02:29Z</time>
      </trkpt>
      <trkpt lat="48.77208" lon="-1.50586">
        <ele>75</ele>
        <time>2020-09-08T13:02:39Z</time>
      </trkpt>
      <trkpt lat="48.77215" lon="-1.50542">
        <ele>73</ele>
        <time>2020-09-08T13:02:59Z</time>
      </trkpt>
      <trkpt lat="48.7722" lon="-1.50472">
        <ele>77</ele>
        <time>2020-09-08T13:03:31Z</time>
      </trkpt>
      <trkpt lat="48.77227" lon="-1.50408">
        <ele>79</ele>
        <time>2020-09-08T13:04:01Z</time>
      </trkpt>
      <trkpt lat="48.7723" lon="-1.50384">
        <ele>80</ele>
        <time>2020-09-08T13:04:13Z</time>
      </trkpt>
      <trkpt lat="48.77242" lon="-1.50344">
        <ele>84</ele>
        <time>2020-09-08T13:04:37Z</time>
      </trkpt>
      <trkpt lat="48.77276" lon="-1.50245">
        <ele>83</ele>
        <time>2020-09-08T13:05:34Z</time>
      </trkpt>
      <trkpt lat="48.77283" lon="-1.5023">
        <ele>82</ele>
        <time>2020-09-08T13:05:43Z</time>
      </trkpt>
      <trkpt lat="48.77322" lon="-1.50224">
        <ele>75</ele>
        <time>2020-09-08T13:06:16Z</time>
      </trkpt>
      <trkpt lat="48.77343" lon="-1.50216">
        <ele>71</ele>
        <time>2020-09-08T13:06:37Z</time>
      </trkpt>
      <trkpt lat="48.77351" lon="-1.50211">
        <ele>72</ele>
        <time>2020-09-08T13:06:46Z</time>
      </trkpt>
      <trkpt lat="48.77359" lon="-1.50209">
        <ele>70</ele>
        <time>2020-09-08T13:06:54Z</time>
      </trkpt>
      <trkpt lat="48.77369" lon="-1.5019">
        <ele>70</ele>
        <time>2020-09-08T13:07:03Z</time>
      </trkpt>
      <trkpt lat="48.7737" lon="-1.50169">
        <ele>71</ele>
        <time>2020-09-08T13:07:11Z</time>
      </trkpt>
      <trkpt lat="48.7737" lon="-1.5014">
        <ele>75</ele>
        <time>2020-09-08T13:07:25Z</time>
      </trkpt>
      <trkpt lat="48.77375" lon="-1.50016">
        <ele>76</ele>
        <time>2020-09-08T13:07:57Z</time>
      </trkpt>
      <trkpt lat="48.77377" lon="-1.50002">
        <ele>76</ele>
        <time>2020-09-08T13:08:02Z</time>
      </trkpt>
      <trkpt lat="48.77377" lon="-1.49982">
        <ele>77</ele>
        <time>2020-09-08T13:08:10Z</time>
      </trkpt>
      <trkpt lat="48.77395" lon="-1.49883">
        <ele>74</ele>
        <time>2020-09-08T13:08:33Z</time>
      </trkpt>
      <trkpt lat="48.77404" lon="-1.49873">
        <ele>74</ele>
        <time>2020-09-08T13:08:42Z</time>
      </trkpt>
      <trkpt lat="48.7743" lon="-1.49846">
        <ele>69</ele>
        <time>2020-09-08T13:09:09Z</time>
      </trkpt>
      <trkpt lat="48.77442" lon="-1.49835">
        <ele>70</ele>
        <time>2020-09-08T13:09:21Z</time>
      </trkpt>
      <trkpt lat="48.77473" lon="-1.49793">
        <ele>65</ele>
        <time>2020-09-08T13:10:00Z</time>
      </trkpt>
      <trkpt lat="48.77506" lon="-1.49751">
        <ele>59</ele>
        <time>2020-09-08T13:10:31Z</time>
      </trkpt>
      <trkpt lat="48.77537" lon="-1.49715">
        <ele>59</ele>
        <time>2020-09-08T13:11:00Z</time>
      </trkpt>
      <trkpt lat="48.77543" lon="-1.49699">
        <ele>59</ele>
        <time>2020-09-08T13:11:10Z</time>
      </trkpt>
      <trkpt lat="48.77544" lon="-1.49677">
        <ele>61</ele>
        <time>2020-09-08T13:11:21Z</time>
      </trkpt>
      <trkpt lat="48.77546" lon="-1.49664">
        <ele>60</ele>
        <time>2020-09-08T13:11:27Z</time>
      </trkpt>
      <trkpt lat="48.77556" lon="-1.49635">
        <ele>60</ele>
        <time>2020-09-08T13:11:44Z</time>
      </trkpt>
      <trkpt lat="48.77566" lon="-1.49621">
        <ele>59</ele>
        <time>2020-09-08T13:11:53Z</time>
      </trkpt>
      <trkpt lat="48.77582" lon="-1.49585">
        <ele>60</ele>
        <time>2020-09-08T13:12:14Z</time>
      </trkpt>
      <trkpt lat="48.77587" lon="-1.49565">
        <ele>61</ele>
        <time>2020-09-08T13:12:21Z</time>
      </trkpt>
      <trkpt lat="48.77593" lon="-1.49531">
        <ele>60</ele>
        <time>2020-09-08T13:12:30Z</time>
      </trkpt>
      <trkpt lat="48.77627" lon="-1.49472">
        <ele>60</ele>
        <time>2020-09-08T13:12:48Z</time>
      </trkpt>
      <trkpt lat="48.77637" lon="-1.49463">
        <ele>60</ele>
        <time>2020-09-08T13:12:53Z</time>
      </trkpt>
      <trkpt lat="48.77645" lon="-1.49459">
        <ele>62</ele>
        <time>2020-09-08T13:12:59Z</time>
      </trkpt>
      <trkpt lat="48.77662" lon="-1.4946">
        <ele>64</ele>
        <time>2020-09-08T13:13:13Z</time>
      </trkpt>
      <trkpt lat="48.77671" lon="-1.49466">
        <ele>64</ele>
        <time>2020-09-08T13:13:21Z</time>
      </trkpt>
      <trkpt lat="48.7768" lon="-1.49462">
        <ele>63</ele>
        <time>2020-09-08T13:13:29Z</time>
      </trkpt>
      <trkpt lat="48.77688" lon="-1.4946">
        <ele>64</ele>
        <time>2020-09-08T13:13:37Z</time>
      </trkpt>
      <trkpt lat="48.77696" lon="-1.49462">
        <ele>65</ele>
        <time>2020-09-08T13:13:43Z</time>
      </trkpt>
      <trkpt lat="48.77704" lon="-1.49467">
        <ele>66</ele>
        <time>2020-09-08T13:13:51Z</time>
      </trkpt>
      <trkpt lat="48.77694" lon="-1.49522">
        <ele>65</ele>
        <time>2020-09-08T13:14:24Z</time>
      </trkpt>
      <trkpt lat="48.7769" lon="-1.49546">
        <ele>65</ele>
        <time>2020-09-08T13:14:38Z</time>
      </trkpt>
      <trkpt lat="48.77683" lon="-1.49572">
        <ele>68</ele>
        <time>2020-09-08T13:14:52Z</time>
      </trkpt>
      <trkpt lat="48.77686" lon="-1.49584">
        <ele>67</ele>
        <time>2020-09-08T13:14:59Z</time>
      </trkpt>
      <trkpt lat="48.77688" lon="-1.49596">
        <ele>67</ele>
        <time>2020-09-08T13:15:05Z</time>
      </trkpt>
      <trkpt lat="48.77692" lon="-1.49625">
        <ele>65</ele>
        <time>2020-09-08T13:15:18Z</time>
      </trkpt>
      <trkpt lat="48.77694" lon="-1.4965">
        <ele>69</ele>
        <time>2020-09-08T13:15:31Z</time>
      </trkpt>
      <trkpt lat="48.77694" lon="-1.4968">
        <ele>69</ele>
        <time>2020-09-08T13:15:48Z</time>
      </trkpt>
      <trkpt lat="48.77701" lon="-1.49694">
        <ele>70</ele>
        <time>2020-09-08T13:15:57Z</time>
      </trkpt>
      <trkpt lat="48.77709" lon="-1.49701">
        <ele>69</ele>
        <time>2020-09-08T13:16:07Z</time>
      </trkpt>
      <trkpt lat="48.77749" lon="-1.49746">
        <ele>76</ele>
        <time>2020-09-08T13:16:47Z</time>
      </trkpt>
      <trkpt lat="48.77769" lon="-1.49765">
        <ele>77</ele>
        <time>2020-09-08T13:17:04Z</time>
      </trkpt>
      <trkpt lat="48.77777" lon="-1.49774">
        <ele>76</ele>
        <time>2020-09-08T13:17:10Z</time>
      </trkpt>
      <trkpt lat="48.77784" lon="-1.49784">
        <ele>78</ele>
        <time>2020-09-08T13:17:17Z</time>
      </trkpt>
      <trkpt lat="48.7779" lon="-1.49793">
        <ele>78</ele>
        <time>2020-09-08T13:17:24Z</time>
      </trkpt>
      <trkpt lat="48.77825" lon="-1.49847">
        <ele>84</ele>
        <time>2020-09-08T13:17:59Z</time>
      </trkpt>
      <trkpt lat="48.77867" lon="-1.49889">
        <ele>89</ele>
        <time>2020-09-08T13:18:33Z</time>
      </trkpt>
      <trkpt lat="48.7788" lon="-1.49898">
        <ele>91</ele>
        <time>2020-09-08T13:18:45Z</time>
      </trkpt>
      <trkpt lat="48.7789" lon="-1.49855">
        <ele>91</ele>
        <time>2020-09-08T13:20:19Z</time>
      </trkpt>
      <trkpt lat="48.77899" lon="-1.49789">
        <ele>91</ele>
        <time>2020-09-08T13:20:50Z</time>
      </trkpt>
      <trkpt lat="48.77908" lon="-1.49733">
        <ele>90</ele>
        <time>2020-09-08T13:21:21Z</time>
      </trkpt>
      <trkpt lat="48.77908" lon="-1.49745">
        <ele>88</ele>
        <time>2020-09-08T13:21:40Z</time>
      </trkpt>
      <trkpt lat="48.77904" lon="-1.49758">
        <ele>87</ele>
        <time>2020-09-08T13:21:56Z</time>
      </trkpt>
      <trkpt lat="48.77894" lon="-1.49832">
        <ele>89</ele>
        <time>2020-09-08T13:22:30Z</time>
      </trkpt>
      <trkpt lat="48.77887" lon="-1.49897">
        <ele>90</ele>
        <time>2020-09-08T13:23:00Z</time>
      </trkpt>
      <trkpt lat="48.77889" lon="-1.49962">
        <ele>89</ele>
        <time>2020-09-08T13:23:30Z</time>
      </trkpt>
      <trkpt lat="48.77901" lon="-1.50028">
        <ele>89</ele>
        <time>2020-09-08T13:24:01Z</time>
      </trkpt>
      <trkpt lat="48.77914" lon="-1.50079">
        <ele>83</ele>
        <time>2020-09-08T13:24:22Z</time>
      </trkpt>
      <trkpt lat="48.77921" lon="-1.50135">
        <ele>82</ele>
        <time>2020-09-08T13:24:37Z</time>
      </trkpt>
      <trkpt lat="48.77934" lon="-1.50258">
        <ele>89</ele>
        <time>2020-09-08T13:25:35Z</time>
      </trkpt>
      <trkpt lat="48.7796" lon="-1.50356">
        <ele>87</ele>
        <time>2020-09-08T13:26:17Z</time>
      </trkpt>
      <trkpt lat="48.77973" lon="-1.50421">
        <ele>84</ele>
        <time>2020-09-08T13:26:47Z</time>
      </trkpt>
      <trkpt lat="48.77996" lon="-1.50493">
        <ele>81</ele>
        <time>2020-09-08T13:27:21Z</time>
      </trkpt>
      <trkpt lat="48.78017" lon="-1.50559">
        <ele>77</ele>
        <time>2020-09-08T13:27:53Z</time>
      </trkpt>
      <trkpt lat="48.78022" lon="-1.50574">
        <ele>75</ele>
        <time>2020-09-08T13:28:01Z</time>
      </trkpt>
      <trkpt lat="48.78037" lon="-1.50641">
        <ele>72</ele>
        <time>2020-09-08T13:28:31Z</time>
      </trkpt>
      <trkpt lat="48.78037" lon="-1.50766">
        <ele>67</ele>
        <time>2020-09-08T13:29:05Z</time>
      </trkpt>
      <trkpt lat="48.7803" lon="-1.50844">
        <ele>63</ele>
        <time>2020-09-08T13:29:40Z</time>
      </trkpt>
      <trkpt lat="48.78041" lon="-1.50918">
        <ele>50</ele>
        <time>2020-09-08T13:30:17Z</time>
      </trkpt>
      <trkpt lat="48.7804" lon="-1.50929">
        <ele>47</ele>
        <time>2020-09-08T13:30:23Z</time>
      </trkpt>
      <trkpt lat="48.78044" lon="-1.50962">
        <ele>47</ele>
        <time>2020-09-08T13:30:39Z</time>
      </trkpt>
      <trkpt lat="48.78047" lon="-1.50972">
        <ele>47</ele>
        <time>2020-09-08T13:30:45Z</time>
      </trkpt>
      <trkpt lat="48.78075" lon="-1.51002">
        <ele>47</ele>
        <time>2020-09-08T13:31:07Z</time>
      </trkpt>
      <trkpt lat="48.78097" lon="-1.5101">
        <ele>49</ele>
        <time>2020-09-08T13:31:22Z</time>
      </trkpt>
      <trkpt lat="48.7814" lon="-1.51012">
        <ele>48</ele>
        <time>2020-09-08T13:31:52Z</time>
      </trkpt>
      <trkpt lat="48.78163" lon="-1.51018">
        <ele>48</ele>
        <time>2020-09-08T13:32:10Z</time>
      </trkpt>
      <trkpt lat="48.78172" lon="-1.51023">
        <ele>46</ele>
        <time>2020-09-08T13:32:16Z</time>
      </trkpt>
      <trkpt lat="48.78185" lon="-1.51033">
        <ele>46</ele>
        <time>2020-09-08T13:32:25Z</time>
      </trkpt>
      <trkpt lat="48.78203" lon="-1.5107">
        <ele>44</ele>
        <time>2020-09-08T13:32:47Z</time>
      </trkpt>
      <trkpt lat="48.78208" lon="-1.51097">
        <ele>45</ele>
        <time>2020-09-08T13:32:59Z</time>
      </trkpt>
      <trkpt lat="48.78228" lon="-1.51132">
        <ele>42</ele>
        <time>2020-09-08T13:33:20Z</time>
      </trkpt>
      <trkpt lat="48.78251" lon="-1.51144">
        <ele>41</ele>
        <time>2020-09-08T13:33:37Z</time>
      </trkpt>
      <trkpt lat="48.78266" lon="-1.51149">
        <ele>42</ele>
        <time>2020-09-08T13:33:47Z</time>
      </trkpt>
      <trkpt lat="48.7829" lon="-1.51158">
        <ele>42</ele>
        <time>2020-09-08T13:34:05Z</time>
      </trkpt>
      <trkpt lat="48.78333" lon="-1.51178">
        <ele>39</ele>
        <time>2020-09-08T13:34:35Z</time>
      </trkpt>
      <trkpt lat="48.78341" lon="-1.51184">
        <ele>40</ele>
        <time>2020-09-08T13:34:42Z</time>
      </trkpt>
      <trkpt lat="48.7837" lon="-1.51196">
        <ele>40</ele>
        <time>2020-09-08T13:35:12Z</time>
      </trkpt>
      <trkpt lat="48.78378" lon="-1.5121">
        <ele>37</ele>
        <time>2020-09-08T13:35:35Z</time>
      </trkpt>
      <trkpt lat="48.78372" lon="-1.51262">
        <ele>35</ele>
        <time>2020-09-08T13:36:05Z</time>
      </trkpt>
      <trkpt lat="48.78369" lon="-1.51281">
        <ele>35</ele>
        <time>2020-09-08T13:36:15Z</time>
      </trkpt>
      <trkpt lat="48.78373" lon="-1.51299">
        <ele>35</ele>
        <time>2020-09-08T13:36:25Z</time>
      </trkpt>
      <trkpt lat="48.78379" lon="-1.51307">
        <ele>35</ele>
        <time>2020-09-08T13:36:32Z</time>
      </trkpt>
      <trkpt lat="48.78419" lon="-1.51309">
        <ele>36</ele>
        <time>2020-09-08T13:37:07Z</time>
      </trkpt>
      <trkpt lat="48.78457" lon="-1.5131">
        <ele>35</ele>
        <time>2020-09-08T13:37:39Z</time>
      </trkpt>
      <trkpt lat="48.78474" lon="-1.51312">
        <ele>32</ele>
        <time>2020-09-08T13:37:53Z</time>
      </trkpt>
      <trkpt lat="48.78483" lon="-1.51316">
        <ele>33</ele>
        <time>2020-09-08T13:38:01Z</time>
      </trkpt>
      <trkpt lat="48.78514" lon="-1.51323">
        <ele>32</ele>
        <time>2020-09-08T13:38:27Z</time>
      </trkpt>
      <trkpt lat="48.78522" lon="-1.5133">
        <ele>33</ele>
        <time>2020-09-08T13:38:35Z</time>
      </trkpt>
      <trkpt lat="48.78529" lon="-1.51342">
        <ele>33</ele>
        <time>2020-09-08T13:38:45Z</time>
      </trkpt>
      <trkpt lat="48.78528" lon="-1.5138">
        <ele>33</ele>
        <time>2020-09-08T13:39:04Z</time>
      </trkpt>
      <trkpt lat="48.78527" lon="-1.51437">
        <ele>31</ele>
        <time>2020-09-08T13:39:35Z</time>
      </trkpt>
      <trkpt lat="48.78529" lon="-1.51473">
        <ele>26</ele>
        <time>2020-09-08T13:39:56Z</time>
      </trkpt>
      <trkpt lat="48.78533" lon="-1.51536">
        <ele>28</ele>
        <time>2020-09-08T13:40:24Z</time>
      </trkpt>
      <trkpt lat="48.78546" lon="-1.51572">
        <ele>25</ele>
        <time>2020-09-08T13:40:45Z</time>
      </trkpt>
      <trkpt lat="48.78568" lon="-1.51631">
        <ele>26</ele>
        <time>2020-09-08T13:41:19Z</time>
      </trkpt>
      <trkpt lat="48.78575" lon="-1.5164">
        <ele>26</ele>
        <time>2020-09-08T13:41:27Z</time>
      </trkpt>
      <trkpt lat="48.78602" lon="-1.51667">
        <ele>23</ele>
        <time>2020-09-08T13:41:37Z</time>
      </trkpt>
      <trkpt lat="48.78664" lon="-1.51753">
        <ele>21</ele>
        <time>2020-09-08T13:42:04Z</time>
      </trkpt>
      <trkpt lat="48.78686" lon="-1.51811">
        <ele>20</ele>
        <time>2020-09-08T13:42:24Z</time>
      </trkpt>
      <trkpt lat="48.78694" lon="-1.51847">
        <ele>15</ele>
        <time>2020-09-08T13:42:42Z</time>
      </trkpt>
      <trkpt lat="48.78695" lon="-1.51895">
        <ele>8</ele>
        <time>2020-09-08T13:43:04Z</time>
      </trkpt>
      <trkpt lat="48.78693" lon="-1.51976">
        <ele>6</ele>
        <time>2020-09-08T13:43:38Z</time>
      </trkpt>
      <trkpt lat="48.78693" lon="-1.52051">
        <ele>2</ele>
        <time>2020-09-08T13:44:02Z</time>
      </trkpt>
      <trkpt lat="48.78689" lon="-1.52069">
        <ele>6</ele>
        <time>2020-09-08T13:44:16Z</time>
      </trkpt>
      <trkpt lat="48.78695" lon="-1.52084">
        <ele>7</ele>
        <time>2020-09-08T13:44:31Z</time>
      </trkpt>
      <trkpt lat="48.78711" lon="-1.52091">
        <ele>5</ele>
        <time>2020-09-08T13:44:45Z</time>
      </trkpt>
      <trkpt lat="48.78739" lon="-1.52104">
        <ele>6</ele>
        <time>2020-09-08T13:45:09Z</time>
      </trkpt>
      <trkpt lat="48.78748" lon="-1.52108">
        <ele>5</ele>
        <time>2020-09-08T13:45:21Z</time>
      </trkpt>
      <trkpt lat="48.78798" lon="-1.52114">
        <ele>7</ele>
        <time>2020-09-08T13:45:55Z</time>
      </trkpt>
      <trkpt lat="48.7883" lon="-1.52121">
        <ele>9</ele>
        <time>2020-09-08T13:46:19Z</time>
      </trkpt>
      <trkpt lat="48.78857" lon="-1.52136">
        <ele>9</ele>
        <time>2020-09-08T13:46:39Z</time>
      </trkpt>
      <trkpt lat="48.78868" lon="-1.52153">
        <ele>7</ele>
        <time>2020-09-08T13:46:51Z</time>
      </trkpt>
      <trkpt lat="48.78878" lon="-1.52184">
        <ele>7</ele>
        <time>2020-09-08T13:47:07Z</time>
      </trkpt>
      <trkpt lat="48.78905" lon="-1.52212">
        <ele>7</ele>
        <time>2020-09-08T13:47:30Z</time>
      </trkpt>
      <trkpt lat="48.78936" lon="-1.52239">
        <ele>10</ele>
        <time>2020-09-08T13:47:57Z</time>
      </trkpt>
      <trkpt lat="48.78948" lon="-1.52247">
        <ele>8</ele>
        <time>2020-09-08T13:48:06Z</time>
      </trkpt>
      <trkpt lat="48.7899" lon="-1.5228">
        <ele>9</ele>
        <time>2020-09-08T13:48:40Z</time>
      </trkpt>
      <trkpt lat="48.79023" lon="-1.52311">
        <ele>13</ele>
        <time>2020-09-08T13:49:08Z</time>
      </trkpt>
      <trkpt lat="48.79043" lon="-1.5233">
        <ele>13</ele>
        <time>2020-09-08T13:49:25Z</time>
      </trkpt>
      <trkpt lat="48.79033" lon="-1.52367">
        <ele>14</ele>
        <time>2020-09-08T13:49:47Z</time>
      </trkpt>
      <trkpt lat="48.79009" lon="-1.52427">
        <ele>19</ele>
        <time>2020-09-08T13:50:19Z</time>
      </trkpt>
      <trkpt lat="48.79004" lon="-1.5244">
        <ele>19</ele>
        <time>2020-09-08T13:50:26Z</time>
      </trkpt>
      <trkpt lat="48.78991" lon="-1.52452">
        <ele>20</ele>
        <time>2020-09-08T13:50:37Z</time>
      </trkpt>
      <trkpt lat="48.78972" lon="-1.52477">
        <ele>20</ele>
        <time>2020-09-08T13:50:54Z</time>
      </trkpt>
      <trkpt lat="48.7894" lon="-1.52529">
        <ele>26</ele>
        <time>2020-09-08T13:51:27Z</time>
      </trkpt>
      <trkpt lat="48.78878" lon="-1.5267">
        <ele>29</ele>
        <time>2020-09-08T13:52:06Z</time>
      </trkpt>
      <trkpt lat="48.78867" lon="-1.52688">
        <ele>30</ele>
        <time>2020-09-08T13:52:11Z</time>
      </trkpt>
      <trkpt lat="48.78831" lon="-1.52762">
        <ele>28</ele>
        <time>2020-09-08T13:52:54Z</time>
      </trkpt>
      <trkpt lat="48.78856" lon="-1.52704">
        <ele>27</ele>
        <time>2020-09-08T13:53:23Z</time>
      </trkpt>
      <trkpt lat="48.78872" lon="-1.5271">
        <ele>26</ele>
        <time>2020-09-08T13:53:33Z</time>
      </trkpt>
      <trkpt lat="48.78967" lon="-1.52854">
        <ele>22</ele>
        <time>2020-09-08T13:54:13Z</time>
      </trkpt>
      <trkpt lat="48.79" lon="-1.52902">
        <ele>21</ele>
        <time>2020-09-08T13:54:27Z</time>
      </trkpt>
      <trkpt lat="48.79005" lon="-1.52911">
        <ele>24</ele>
        <time>2020-09-08T13:54:36Z</time>
      </trkpt>
      <trkpt lat="48.79014" lon="-1.52925">
        <ele>24</ele>
        <time>2020-09-08T13:54:49Z</time>
      </trkpt>
      <trkpt lat="48.79017" lon="-1.52937">
        <ele>25</ele>
        <time>2020-09-08T13:54:55Z</time>
      </trkpt>
      <trkpt lat="48.78981" lon="-1.53028">
        <ele>32</ele>
        <time>2020-09-08T13:55:20Z</time>
      </trkpt>
      <trkpt lat="48.78966" lon="-1.53067">
        <ele>32</ele>
        <time>2020-09-08T13:55:29Z</time>
      </trkpt>
      <trkpt lat="48.78924" lon="-1.53209">
        <ele>33</ele>
        <time>2020-09-08T13:55:59Z</time>
      </trkpt>
      <trkpt lat="48.78901" lon="-1.5332">
        <ele>34</ele>
        <time>2020-09-08T13:56:41Z</time>
      </trkpt>
      <trkpt lat="48.78871" lon="-1.53397">
        <ele>33</ele>
        <time>2020-09-08T13:57:23Z</time>
      </trkpt>
      <trkpt lat="48.78867" lon="-1.53407">
        <ele>32</ele>
        <time>2020-09-08T13:57:28Z</time>
      </trkpt>
      <trkpt lat="48.78858" lon="-1.5343">
        <ele>32</ele>
        <time>2020-09-08T13:57:40Z</time>
      </trkpt>
      <trkpt lat="48.7884" lon="-1.53479">
        <ele>30</ele>
        <time>2020-09-08T13:58:05Z</time>
      </trkpt>
      <trkpt lat="48.78835" lon="-1.53503">
        <ele>32</ele>
        <time>2020-09-08T13:58:20Z</time>
      </trkpt>
      <trkpt lat="48.78831" lon="-1.53517">
        <ele>32</ele>
        <time>2020-09-08T13:58:28Z</time>
      </trkpt>
      <trkpt lat="48.78825" lon="-1.53587">
        <ele>32</ele>
        <time>2020-09-08T13:58:54Z</time>
      </trkpt>
      <trkpt lat="48.78839" lon="-1.53685">
        <ele>29</ele>
        <time>2020-09-08T13:59:14Z</time>
      </trkpt>
      <trkpt lat="48.78903" lon="-1.53835">
        <ele>24</ele>
        <time>2020-09-08T13:59:55Z</time>
      </trkpt>
      <trkpt lat="48.78905" lon="-1.53846">
        <ele>24</ele>
        <time>2020-09-08T14:00:02Z</time>
      </trkpt>
      <trkpt lat="48.78905" lon="-1.53859">
        <ele>24</ele>
        <time>2020-09-08T14:00:08Z</time>
      </trkpt>
      <trkpt lat="48.78927" lon="-1.5394">
        <ele>25</ele>
        <time>2020-09-08T14:00:38Z</time>
      </trkpt>
      <trkpt lat="48.78932" lon="-1.53954">
        <ele>24</ele>
        <time>2020-09-08T14:00:42Z</time>
      </trkpt>
      <trkpt lat="48.78946" lon="-1.54026">
        <ele>23</ele>
        <time>2020-09-08T14:00:58Z</time>
      </trkpt>
      <trkpt lat="48.78953" lon="-1.54045">
        <ele>23</ele>
        <time>2020-09-08T14:01:03Z</time>
      </trkpt>
      <trkpt lat="48.79003" lon="-1.54118">
        <ele>22</ele>
        <time>2020-09-08T14:01:27Z</time>
      </trkpt>
      <trkpt lat="48.79011" lon="-1.54133">
        <ele>23</ele>
        <time>2020-09-08T14:01:31Z</time>
      </trkpt>
      <trkpt lat="48.79015" lon="-1.54143">
        <ele>23</ele>
        <time>2020-09-08T14:01:34Z</time>
      </trkpt>
      <trkpt lat="48.79015" lon="-1.54158">
        <ele>25</ele>
        <time>2020-09-08T14:01:39Z</time>
      </trkpt>
      <trkpt lat="48.79004" lon="-1.54181">
        <ele>34</ele>
        <time>2020-09-08T14:01:44Z</time>
      </trkpt>
      <trkpt lat="48.78913" lon="-1.54303">
        <ele>42</ele>
        <time>2020-09-08T14:02:31Z</time>
      </trkpt>
      <trkpt lat="48.78888" lon="-1.54355">
        <ele>41</ele>
        <time>2020-09-08T14:03:01Z</time>
      </trkpt>
      <trkpt lat="48.78835" lon="-1.5442">
        <ele>42</ele>
        <time>2020-09-08T14:03:31Z</time>
      </trkpt>
      <trkpt lat="48.78801" lon="-1.54464">
        <ele>41</ele>
        <time>2020-09-08T14:04:05Z</time>
      </trkpt>
      <trkpt lat="48.78776" lon="-1.54521">
        <ele>38</ele>
        <time>2020-09-08T14:04:35Z</time>
      </trkpt>
      <trkpt lat="48.78753" lon="-1.54577">
        <ele>33</ele>
        <time>2020-09-08T14:05:06Z</time>
      </trkpt>
      <trkpt lat="48.78732" lon="-1.5463">
        <ele>25</ele>
        <time>2020-09-08T14:05:41Z</time>
      </trkpt>
      <trkpt lat="48.78714" lon="-1.54678">
        <ele>21</ele>
        <time>2020-09-08T14:06:05Z</time>
      </trkpt>
      <trkpt lat="48.78707" lon="-1.54708">
        <ele>14</ele>
        <time>2020-09-08T14:06:22Z</time>
      </trkpt>
      <trkpt lat="48.78703" lon="-1.54717">
        <ele>15</ele>
        <time>2020-09-08T14:06:28Z</time>
      </trkpt>
      <trkpt lat="48.78704" lon="-1.54746">
        <ele>16</ele>
        <time>2020-09-08T14:06:41Z</time>
      </trkpt>
      <trkpt lat="48.78711" lon="-1.54758">
        <ele>16</ele>
        <time>2020-09-08T14:06:49Z</time>
      </trkpt>
      <trkpt lat="48.78746" lon="-1.54781">
        <ele>14</ele>
        <time>2020-09-08T14:07:19Z</time>
      </trkpt>
      <trkpt lat="48.78774" lon="-1.54812">
        <ele>15</ele>
        <time>2020-09-08T14:07:44Z</time>
      </trkpt>
      <trkpt lat="48.78784" lon="-1.54825">
        <ele>17</ele>
        <time>2020-09-08T14:07:54Z</time>
      </trkpt>
      <trkpt lat="48.78804" lon="-1.54872">
        <ele>18</ele>
        <time>2020-09-08T14:08:48Z</time>
      </trkpt>
      <trkpt lat="48.7881" lon="-1.54882">
        <ele>18</ele>
        <time>2020-09-08T14:08:56Z</time>
      </trkpt>
      <trkpt lat="48.78813" lon="-1.54894">
        <ele>19</ele>
        <time>2020-09-08T14:09:04Z</time>
      </trkpt>
      <trkpt lat="48.78797" lon="-1.54938">
        <ele>20</ele>
        <time>2020-09-08T14:09:32Z</time>
      </trkpt>
      <trkpt lat="48.7879" lon="-1.54959">
        <ele>19</ele>
        <time>2020-09-08T14:09:44Z</time>
      </trkpt>
      <trkpt lat="48.78776" lon="-1.55009">
        <ele>19</ele>
        <time>2020-09-08T14:10:14Z</time>
      </trkpt>
      <trkpt lat="48.78773" lon="-1.55022">
        <ele>20</ele>
        <time>2020-09-08T14:10:22Z</time>
      </trkpt>
      <trkpt lat="48.7877" lon="-1.55035">
        <ele>19</ele>
        <time>2020-09-08T14:10:31Z</time>
      </trkpt>
      <trkpt lat="48.78753" lon="-1.5511">
        <ele>18</ele>
        <time>2020-09-08T14:11:09Z</time>
      </trkpt>
      <trkpt lat="48.78748" lon="-1.55139">
        <ele>19</ele>
        <time>2020-09-08T14:11:22Z</time>
      </trkpt>
      <trkpt lat="48.78752" lon="-1.5516">
        <ele>20</ele>
        <time>2020-09-08T14:11:33Z</time>
      </trkpt>
      <trkpt lat="48.78756" lon="-1.55171">
        <ele>21</ele>
        <time>2020-09-08T14:11:40Z</time>
      </trkpt>
      <trkpt lat="48.78767" lon="-1.55189">
        <ele>21</ele>
        <time>2020-09-08T14:11:52Z</time>
      </trkpt>
      <trkpt lat="48.7877" lon="-1.55212">
        <ele>21</ele>
        <time>2020-09-08T14:12:06Z</time>
      </trkpt>
      <trkpt lat="48.78768" lon="-1.55224">
        <ele>23</ele>
        <time>2020-09-08T14:12:12Z</time>
      </trkpt>
      <trkpt lat="48.78758" lon="-1.55255">
        <ele>26</ele>
        <time>2020-09-08T14:12:28Z</time>
      </trkpt>
      <trkpt lat="48.78761" lon="-1.55269">
        <ele>27</ele>
        <time>2020-09-08T14:12:36Z</time>
      </trkpt>
      <trkpt lat="48.78768" lon="-1.55262">
        <ele>28</ele>
        <time>2020-09-08T14:12:44Z</time>
      </trkpt>
      <trkpt lat="48.78784" lon="-1.55249">
        <ele>29</ele>
        <time>2020-09-08T14:12:59Z</time>
      </trkpt>
      <trkpt lat="48.788" lon="-1.55232">
        <ele>27</ele>
        <time>2020-09-08T14:13:14Z</time>
      </trkpt>
      <trkpt lat="48.78765" lon="-1.55266">
        <ele>28</ele>
        <time>2020-09-08T14:15:53Z</time>
      </trkpt>
      <trkpt lat="48.78758" lon="-1.55276">
        <ele>26</ele>
        <time>2020-09-08T14:16:00Z</time>
      </trkpt>
      <trkpt lat="48.78759" lon="-1.55305">
        <ele>24</ele>
        <time>2020-09-08T14:16:14Z</time>
      </trkpt>
      <trkpt lat="48.78771" lon="-1.55299">
        <ele>27</ele>
        <time>2020-09-08T14:17:10Z</time>
      </trkpt>
      <trkpt lat="48.78801" lon="-1.55305">
        <ele>26</ele>
        <time>2020-09-08T14:17:36Z</time>
      </trkpt>
      <trkpt lat="48.78814" lon="-1.55312">
        <ele>28</ele>
        <time>2020-09-08T14:17:48Z</time>
      </trkpt>
      <trkpt lat="48.78821" lon="-1.55314">
        <ele>28</ele>
        <time>2020-09-08T14:17:55Z</time>
      </trkpt>
      <trkpt lat="48.78837" lon="-1.55326">
        <ele>29</ele>
        <time>2020-09-08T14:18:12Z</time>
      </trkpt>
      <trkpt lat="48.78878" lon="-1.55376">
        <ele>28</ele>
        <time>2020-09-08T14:18:58Z</time>
      </trkpt>
      <trkpt lat="48.78883" lon="-1.55384">
        <ele>28</ele>
        <time>2020-09-08T14:19:04Z</time>
      </trkpt>
      <trkpt lat="48.78902" lon="-1.55413">
        <ele>31</ele>
        <time>2020-09-08T14:19:25Z</time>
      </trkpt>
      <trkpt lat="48.7893" lon="-1.55458">
        <ele>32</ele>
        <time>2020-09-08T14:19:57Z</time>
      </trkpt>
      <trkpt lat="48.78956" lon="-1.55511">
        <ele>33</ele>
        <time>2020-09-08T14:20:35Z</time>
      </trkpt>
      <trkpt lat="48.78969" lon="-1.55535">
        <ele>33</ele>
        <time>2020-09-08T14:20:55Z</time>
      </trkpt>
      <trkpt lat="48.78988" lon="-1.55572">
        <ele>35</ele>
        <time>2020-09-08T14:21:23Z</time>
      </trkpt>
      <trkpt lat="48.78998" lon="-1.55574">
        <ele>34</ele>
        <time>2020-09-08T14:21:35Z</time>
      </trkpt>
      <trkpt lat="48.79014" lon="-1.55546">
        <ele>39</ele>
        <time>2020-09-08T14:22:01Z</time>
      </trkpt>
      <trkpt lat="48.79009" lon="-1.55554">
        <ele>41</ele>
        <time>2020-09-08T14:33:46Z</time>
      </trkpt>
      <trkpt lat="48.79" lon="-1.55569">
        <ele>39</ele>
        <time>2020-09-08T14:34:01Z</time>
      </trkpt>
      <trkpt lat="48.78999" lon="-1.55582">
        <ele>37</ele>
        <time>2020-09-08T14:34:09Z</time>
      </trkpt>
      <trkpt lat="48.79023" lon="-1.55602">
        <ele>37</ele>
        <time>2020-09-08T14:34:42Z</time>
      </trkpt>
      <trkpt lat="48.79051" lon="-1.55622">
        <ele>35</ele>
        <time>2020-09-08T14:37:02Z</time>
      </trkpt>
      <trkpt lat="48.7908" lon="-1.55645">
        <ele>32</ele>
        <time>2020-09-08T14:37:26Z</time>
      </trkpt>
      <trkpt lat="48.79088" lon="-1.55648">
        <ele>32</ele>
        <time>2020-09-08T14:37:32Z</time>
      </trkpt>
      <trkpt lat="48.79106" lon="-1.55665">
        <ele>32</ele>
        <time>2020-09-08T14:37:48Z</time>
      </trkpt>
      <trkpt lat="48.79146" lon="-1.55699">
        <ele>29</ele>
        <time>2020-09-08T14:38:23Z</time>
      </trkpt>
      <trkpt lat="48.79192" lon="-1.55735">
        <ele>27</ele>
        <time>2020-09-08T14:39:01Z</time>
      </trkpt>
      <trkpt lat="48.79213" lon="-1.55743">
        <ele>27</ele>
        <time>2020-09-08T14:39:17Z</time>
      </trkpt>
      <trkpt lat="48.79242" lon="-1.55748">
        <ele>29</ele>
        <time>2020-09-08T14:39:39Z</time>
      </trkpt>
      <trkpt lat="48.79294" lon="-1.55753">
        <ele>27</ele>
        <time>2020-09-08T14:40:17Z</time>
      </trkpt>
      <trkpt lat="48.79331" lon="-1.55756">
        <ele>24</ele>
        <time>2020-09-08T14:40:47Z</time>
      </trkpt>
      <trkpt lat="48.79369" lon="-1.55756">
        <ele>24</ele>
        <time>2020-09-08T14:41:17Z</time>
      </trkpt>
      <trkpt lat="48.79434" lon="-1.55764">
        <ele>23</ele>
        <time>2020-09-08T14:42:05Z</time>
      </trkpt>
      <trkpt lat="48.79456" lon="-1.55764">
        <ele>23</ele>
        <time>2020-09-08T14:42:21Z</time>
      </trkpt>
      <trkpt lat="48.79479" lon="-1.55762">
        <ele>21</ele>
        <time>2020-09-08T14:42:39Z</time>
      </trkpt>
      <trkpt lat="48.79526" lon="-1.55754">
        <ele>25</ele>
        <time>2020-09-08T14:43:15Z</time>
      </trkpt>
      <trkpt lat="48.79534" lon="-1.55754">
        <ele>26</ele>
        <time>2020-09-08T14:43:22Z</time>
      </trkpt>
      <trkpt lat="48.79543" lon="-1.5576">
        <ele>26</ele>
        <time>2020-09-08T14:43:30Z</time>
      </trkpt>
      <trkpt lat="48.79567" lon="-1.55777">
        <ele>22</ele>
        <time>2020-09-08T14:43:50Z</time>
      </trkpt>
      <trkpt lat="48.79584" lon="-1.55798">
        <ele>23</ele>
        <time>2020-09-08T14:44:08Z</time>
      </trkpt>
      <trkpt lat="48.79603" lon="-1.55816">
        <ele>19</ele>
        <time>2020-09-08T14:44:27Z</time>
      </trkpt>
      <trkpt lat="48.7961" lon="-1.55822">
        <ele>19</ele>
        <time>2020-09-08T14:44:33Z</time>
      </trkpt>
      <trkpt lat="48.79639" lon="-1.55854">
        <ele>15</ele>
        <time>2020-09-08T14:45:04Z</time>
      </trkpt>
      <trkpt lat="48.79682" lon="-1.55888">
        <ele>9</ele>
        <time>2020-09-08T14:45:44Z</time>
      </trkpt>
      <trkpt lat="48.79697" lon="-1.55901">
        <ele>9</ele>
        <time>2020-09-08T14:45:59Z</time>
      </trkpt>
      <trkpt lat="48.79728" lon="-1.55915">
        <ele>9</ele>
        <time>2020-09-08T14:46:17Z</time>
      </trkpt>
      <trkpt lat="48.79793" lon="-1.55955">
        <ele>14</ele>
        <time>2020-09-08T14:46:42Z</time>
      </trkpt>
      <trkpt lat="48.79799" lon="-1.55962">
        <ele>14</ele>
        <time>2020-09-08T14:46:45Z</time>
      </trkpt>
      <trkpt lat="48.79813" lon="-1.55985">
        <ele>13</ele>
        <time>2020-09-08T14:46:53Z</time>
      </trkpt>
      <trkpt lat="48.79863" lon="-1.56116">
        <ele>11</ele>
        <time>2020-09-08T14:47:22Z</time>
      </trkpt>
      <trkpt lat="48.79935" lon="-1.56264">
        <ele>10</ele>
        <time>2020-09-08T14:48:05Z</time>
      </trkpt>
      <trkpt lat="48.79942" lon="-1.56277">
        <ele>10</ele>
        <time>2020-09-08T14:48:13Z</time>
      </trkpt>
      <trkpt lat="48.79946" lon="-1.5629">
        <ele>10</ele>
        <time>2020-09-08T14:48:20Z</time>
      </trkpt>
      <trkpt lat="48.79966" lon="-1.56326">
        <ele>8</ele>
        <time>2020-09-08T14:48:33Z</time>
      </trkpt>
      <trkpt lat="48.7997" lon="-1.56337">
        <ele>9</ele>
        <time>2020-09-08T14:49:01Z</time>
      </trkpt>
      <trkpt lat="48.79978" lon="-1.56352">
        <ele>8</ele>
        <time>2020-09-08T14:49:11Z</time>
      </trkpt>
      <trkpt lat="48.8001" lon="-1.56422">
        <ele>9</ele>
        <time>2020-09-08T14:49:43Z</time>
      </trkpt>
      <trkpt lat="48.80017" lon="-1.56433">
        <ele>8</ele>
        <time>2020-09-08T14:49:46Z</time>
      </trkpt>
      <trkpt lat="48.80065" lon="-1.565">
        <ele>7</ele>
        <time>2020-09-08T14:50:08Z</time>
      </trkpt>
      <trkpt lat="48.80166" lon="-1.56564">
        <ele>5</ele>
        <time>2020-09-08T14:50:38Z</time>
      </trkpt>
      <trkpt lat="48.80266" lon="-1.5664">
        <ele>5</ele>
        <time>2020-09-08T14:51:08Z</time>
      </trkpt>
      <trkpt lat="48.80285" lon="-1.56662">
        <ele>5</ele>
        <time>2020-09-08T14:51:15Z</time>
      </trkpt>
      <trkpt lat="48.80346" lon="-1.5672">
        <ele>10</ele>
        <time>2020-09-08T14:51:38Z</time>
      </trkpt>
      <trkpt lat="48.80353" lon="-1.56724">
        <ele>13</ele>
        <time>2020-09-08T14:51:43Z</time>
      </trkpt>
      <trkpt lat="48.80359" lon="-1.56734">
        <ele>13</ele>
        <time>2020-09-08T14:51:53Z</time>
      </trkpt>
      <trkpt lat="48.80342" lon="-1.56765">
        <ele>15</ele>
        <time>2020-09-08T14:52:32Z</time>
      </trkpt>
      <trkpt lat="48.80343" lon="-1.56809">
        <ele>11</ele>
        <time>2020-09-08T14:52:54Z</time>
      </trkpt>
      <trkpt lat="48.80346" lon="-1.56822">
        <ele>10</ele>
        <time>2020-09-08T14:53:01Z</time>
      </trkpt>
      <trkpt lat="48.80353" lon="-1.56832">
        <ele>9</ele>
        <time>2020-09-08T14:53:09Z</time>
      </trkpt>
      <trkpt lat="48.80357" lon="-1.56853">
        <ele>7</ele>
        <time>2020-09-08T14:53:21Z</time>
      </trkpt>
      <trkpt lat="48.8036" lon="-1.56864">
        <ele>7</ele>
        <time>2020-09-08T14:53:27Z</time>
      </trkpt>
      <trkpt lat="48.80371" lon="-1.56897">
        <ele>4</ele>
        <time>2020-09-08T14:54:42Z</time>
      </trkpt>
      <trkpt lat="48.80394" lon="-1.56899">
        <ele>2</ele>
        <time>2020-09-08T14:55:08Z</time>
      </trkpt>
      <trkpt lat="48.80401" lon="-1.56894">
        <ele>2</ele>
        <time>2020-09-08T14:55:12Z</time>
      </trkpt>
      <trkpt lat="48.80446" lon="-1.56878">
        <ele>5.5</ele>
        <time>2020-09-08T14:55:49Z</time>
      </trkpt>
      <trkpt lat="48.80473" lon="-1.56884">
        <ele>6.2</ele>
        <time>2020-09-08T14:56:11Z</time>
      </trkpt>
      <trkpt lat="48.80487" lon="-1.56894">
        <ele>5.8</ele>
        <time>2020-09-08T14:56:23Z</time>
      </trkpt>
      <trkpt lat="48.80495" lon="-1.56912">
        <ele>1</ele>
        <time>2020-09-08T14:56:37Z</time>
      </trkpt>
      <trkpt lat="48.80498" lon="-1.56929">
        <ele>2</ele>
        <time>2020-09-08T14:56:47Z</time>
      </trkpt>
      <trkpt lat="48.80494" lon="-1.56944">
        <ele>3</ele>
        <time>2020-09-08T14:56:55Z</time>
      </trkpt>
      <trkpt lat="48.80479" lon="-1.56973">
        <ele>5</ele>
        <time>2020-09-08T14:57:12Z</time>
      </trkpt>
      <trkpt lat="48.80475" lon="-1.56986">
        <ele>6</ele>
        <time>2020-09-08T14:57:17Z</time>
      </trkpt>
      <trkpt lat="48.80448" lon="-1.57071">
        <ele>5</ele>
        <time>2020-09-08T14:57:36Z</time>
      </trkpt>
      <trkpt lat="48.80434" lon="-1.57242">
        <ele>2</ele>
        <time>2020-09-08T14:58:12Z</time>
      </trkpt>
      <trkpt lat="48.80437" lon="-1.57258">
        <ele>2</ele>
        <time>2020-09-08T14:58:16Z</time>
      </trkpt>
      <trkpt lat="48.80438" lon="-1.57271">
        <ele>1</ele>
        <time>2020-09-08T14:58:19Z</time>
      </trkpt>
      <trkpt lat="48.80435" lon="-1.57285">
        <ele>1</ele>
        <time>2020-09-08T14:58:22Z</time>
      </trkpt>
      <trkpt lat="48.80409" lon="-1.57352">
        <ele>2</ele>
        <time>2020-09-08T14:58:41Z</time>
      </trkpt>
      <trkpt lat="48.80388" lon="-1.57387">
        <ele>2</ele>
        <time>2020-09-08T14:59:05Z</time>
      </trkpt>
      <trkpt lat="48.80383" lon="-1.57396">
        <ele>3</ele>
        <time>2020-09-08T14:59:11Z</time>
      </trkpt>
      <trkpt lat="48.80376" lon="-1.57412">
        <ele>3</ele>
        <time>2020-09-08T14:59:21Z</time>
      </trkpt>
      <trkpt lat="48.8037" lon="-1.57419">
        <ele>3</ele>
        <time>2020-09-08T14:59:27Z</time>
      </trkpt>
      <trkpt lat="48.80365" lon="-1.57434">
        <ele>4</ele>
        <time>2020-09-08T14:59:35Z</time>
      </trkpt>
      <trkpt lat="48.8034" lon="-1.57473">
        <ele>5</ele>
        <time>2020-09-08T15:00:01Z</time>
      </trkpt>
      <trkpt lat="48.80322" lon="-1.57519">
        <ele>3</ele>
        <time>2020-09-08T15:00:27Z</time>
      </trkpt>
      <trkpt lat="48.80315" lon="-1.5753">
        <ele>3</ele>
        <time>2020-09-08T15:00:35Z</time>
      </trkpt>
      <trkpt lat="48.80309" lon="-1.57556">
        <ele>2</ele>
        <time>2020-09-08T15:00:49Z</time>
      </trkpt>
      <trkpt lat="48.80302" lon="-1.57581">
        <ele>2</ele>
        <time>2020-09-08T15:01:03Z</time>
      </trkpt>
      <trkpt lat="48.80301" lon="-1.57597">
        <ele>2</ele>
        <time>2020-09-08T15:01:11Z</time>
      </trkpt>
      <trkpt lat="48.803" lon="-1.57608">
        <ele>1</ele>
        <time>2020-09-08T15:01:17Z</time>
      </trkpt>
      <trkpt lat="48.80304" lon="-1.57649">
        <time>2020-09-08T15:01:48Z</time>
      </trkpt>
      <trkpt lat="48.80306" lon="-1.5767">
        <ele>-2</ele>
        <time>2020-09-08T15:01:58Z</time>
      </trkpt>
      <trkpt lat="48.80299" lon="-1.57738">
        <ele>-1</ele>
        <time>2020-09-08T15:02:28Z</time>
      </trkpt>
      <trkpt lat="48.80296" lon="-1.57806">
        <ele>-2</ele>
        <time>2020-09-08T15:02:41Z</time>
      </trkpt>
      <trkpt lat="48.80293" lon="-1.57818">
        <ele>-2</ele>
        <time>2020-09-08T15:02:45Z</time>
      </trkpt>
      <trkpt lat="48.80289" lon="-1.57889">
        <ele>-1</ele>
        <time>2020-09-08T15:03:17Z</time>
      </trkpt>
      <trkpt lat="48.80277" lon="-1.57959">
        <ele>-1</ele>
        <time>2020-09-08T15:03:47Z</time>
      </trkpt>
      <trkpt lat="48.80267" lon="-1.58036">
        <ele>-3</ele>
        <time>2020-09-08T15:04:20Z</time>
      </trkpt>
      <trkpt lat="48.80259" lon="-1.58075">
        <ele>-1</ele>
        <time>2020-09-08T15:04:38Z</time>
      </trkpt>
      <trkpt lat="48.80248" lon="-1.58181">
        <ele>-2</ele>
        <time>2020-09-08T15:05:28Z</time>
      </trkpt>
      <trkpt lat="48.80244" lon="-1.5821">
        <ele>-1</ele>
        <time>2020-09-08T15:05:43Z</time>
      </trkpt>
      <trkpt lat="48.80238" lon="-1.58226">
        <ele>-1</ele>
        <time>2020-09-08T15:05:53Z</time>
      </trkpt>
      <trkpt lat="48.80231" lon="-1.58248">
        <ele>-2</ele>
        <time>2020-09-08T15:06:05Z</time>
      </trkpt>
      <trkpt lat="48.80222" lon="-1.58262">
        <ele>-1</ele>
        <time>2020-09-08T15:06:15Z</time>
      </trkpt>
      <trkpt lat="48.80215" lon="-1.58285">
        <ele>-2</ele>
        <time>2020-09-08T15:06:27Z</time>
      </trkpt>
      <trkpt lat="48.80216" lon="-1.583">
        <ele>-2</ele>
        <time>2020-09-08T15:06:37Z</time>
      </trkpt>
      <trkpt lat="48.80213" lon="-1.5831">
        <ele>-2</ele>
        <time>2020-09-08T15:06:43Z</time>
      </trkpt>
      <trkpt lat="48.80212" lon="-1.58321">
        <ele>-2</ele>
        <time>2020-09-08T15:06:49Z</time>
      </trkpt>
      <trkpt lat="48.80215" lon="-1.58333">
        <ele>-1</ele>
        <time>2020-09-08T15:06:56Z</time>
      </trkpt>
      <trkpt lat="48.80207" lon="-1.58387">
        <ele>-2</ele>
        <time>2020-09-08T15:07:22Z</time>
      </trkpt>
      <trkpt lat="48.8019" lon="-1.58413">
        <ele>-2</ele>
        <time>2020-09-08T15:07:59Z</time>
      </trkpt>
      <trkpt lat="48.80182" lon="-1.58414">
        <ele>-3</ele>
        <time>2020-09-08T15:08:12Z</time>
      </trkpt>
      <trkpt lat="48.80179" lon="-1.58403">
        <ele>-3</ele>
        <time>2020-09-08T15:08:19Z</time>
      </trkpt>
      <trkpt lat="48.80177" lon="-1.5839">
        <ele>-1</ele>
        <time>2020-09-08T15:08:27Z</time>
      </trkpt>
      <trkpt lat="48.8017" lon="-1.58379">
        <ele>-1</ele>
        <time>2020-09-08T15:08:34Z</time>
      </trkpt>
      <trkpt lat="48.80166" lon="-1.58371">
        <ele>-2</ele>
        <time>2020-09-08T15:08:40Z</time>
      </trkpt>
      <trkpt lat="48.80132" lon="-1.58357">
        <time>2020-09-08T15:09:05Z</time>
      </trkpt>
      <trkpt lat="48.80092" lon="-1.58357">
        <ele>1</ele>
        <time>2020-09-08T15:09:36Z</time>
      </trkpt>
      <trkpt lat="48.80072" lon="-1.58343">
        <ele>3</ele>
        <time>2020-09-08T15:09:54Z</time>
      </trkpt>
      <trkpt lat="48.80063" lon="-1.58339">
        <ele>3</ele>
        <time>2020-09-08T15:10:02Z</time>
      </trkpt>
      <trkpt lat="48.80032" lon="-1.58316">
        <ele>4</ele>
        <time>2020-09-08T15:10:30Z</time>
      </trkpt>
      <trkpt lat="48.80024" lon="-1.58309">
        <ele>3</ele>
        <time>2020-09-08T15:10:37Z</time>
      </trkpt>
      <trkpt lat="48.8001" lon="-1.58299">
        <ele>3</ele>
        <time>2020-09-08T15:10:50Z</time>
      </trkpt>
      <trkpt lat="48.80002" lon="-1.58288">
        <ele>3</ele>
        <time>2020-09-08T15:10:59Z</time>
      </trkpt>
      <trkpt lat="48.79999" lon="-1.58278">
        <ele>3</ele>
        <time>2020-09-08T15:11:05Z</time>
      </trkpt>
      <trkpt lat="48.8" lon="-1.58256">
        <ele>1</ele>
        <time>2020-09-08T15:11:17Z</time>
      </trkpt>
      <trkpt lat="48.80007" lon="-1.58253">
        <ele>-1</ele>
        <time>2020-09-08T15:11:47Z</time>
      </trkpt>
      <trkpt lat="48.80006" lon="-1.58241">
        <time>2020-09-08T15:14:36Z</time>
      </trkpt>
      <trkpt lat="48.79991" lon="-1.58176">
        <ele>-1</ele>
        <time>2020-09-08T15:15:10Z</time>
      </trkpt>
      <trkpt lat="48.79967" lon="-1.58143">
        <ele>1</ele>
        <time>2020-09-08T15:15:34Z</time>
      </trkpt>
      <trkpt lat="48.79946" lon="-1.58123">
        <ele>1</ele>
        <time>2020-09-08T15:15:52Z</time>
      </trkpt>
      <trkpt lat="48.79936" lon="-1.58104">
        <ele>1</ele>
        <time>2020-09-08T15:16:04Z</time>
      </trkpt>
      <trkpt lat="48.79919" lon="-1.58008">
        <ele>-2</ele>
        <time>2020-09-08T15:16:52Z</time>
      </trkpt>
      <trkpt lat="48.79894" lon="-1.57986">
        <ele>1</ele>
        <time>2020-09-08T15:17:11Z</time>
      </trkpt>
      <trkpt lat="48.79816" lon="-1.57911">
        <ele>-2</ele>
        <time>2020-09-08T15:17:31Z</time>
      </trkpt>
      <trkpt lat="48.7972" lon="-1.57821">
        <ele>2</ele>
        <time>2020-09-08T15:18:05Z</time>
      </trkpt>
      <trkpt lat="48.79632" lon="-1.57749">
        <ele>3</ele>
        <time>2020-09-08T15:18:35Z</time>
      </trkpt>
      <trkpt lat="48.7955" lon="-1.57686">
        <ele>3</ele>
        <time>2020-09-08T15:19:05Z</time>
      </trkpt>
      <trkpt lat="48.79515" lon="-1.57669">
        <ele>3</ele>
        <time>2020-09-08T15:19:17Z</time>
      </trkpt>
      <trkpt lat="48.79493" lon="-1.57665">
        <ele>2</ele>
        <time>2020-09-08T15:19:28Z</time>
      </trkpt>
      <trkpt lat="48.7948" lon="-1.57665">
        <ele>3</ele>
        <time>2020-09-08T15:19:38Z</time>
      </trkpt>
      <trkpt lat="48.79466" lon="-1.5767">
        <ele>3</ele>
        <time>2020-09-08T15:19:50Z</time>
      </trkpt>
      <trkpt lat="48.7946" lon="-1.5768">
        <ele>3</ele>
        <time>2020-09-08T15:19:58Z</time>
      </trkpt>
      <trkpt lat="48.79441" lon="-1.57686">
        <ele>1</ele>
        <time>2020-09-08T15:20:15Z</time>
      </trkpt>
      <trkpt lat="48.79402" lon="-1.57703">
        <ele>1</ele>
        <time>2020-09-08T15:20:45Z</time>
      </trkpt>
      <trkpt lat="48.79365" lon="-1.57713">
        <ele>-3</ele>
        <time>2020-09-08T15:21:14Z</time>
      </trkpt>
      <trkpt lat="48.79349" lon="-1.57715">
        <ele>-2</ele>
        <time>2020-09-08T15:21:25Z</time>
      </trkpt>
      <trkpt lat="48.79344" lon="-1.57723">
        <ele>-1</ele>
        <time>2020-09-08T15:21:31Z</time>
      </trkpt>
      <trkpt lat="48.79337" lon="-1.57727">
        <time>2020-09-08T15:22:02Z</time>
      </trkpt>
      <trkpt lat="48.79294" lon="-1.57742">
        <ele>1</ele>
        <time>2020-09-08T15:22:34Z</time>
      </trkpt>
      <trkpt lat="48.79285" lon="-1.57747">
        <time>2020-09-08T15:24:04Z</time>
      </trkpt>
      <trkpt lat="48.79275" lon="-1.57758">
        <ele>2</ele>
        <time>2020-09-08T15:24:15Z</time>
      </trkpt>
      <trkpt lat="48.79263" lon="-1.57762">
        <ele>2</ele>
        <time>2020-09-08T15:24:23Z</time>
      </trkpt>
      <trkpt lat="48.79251" lon="-1.57773">
        <ele>2</ele>
        <time>2020-09-08T15:24:33Z</time>
      </trkpt>
      <trkpt lat="48.7924" lon="-1.57777">
        <ele>2</ele>
        <time>2020-09-08T15:24:41Z</time>
      </trkpt>
      <trkpt lat="48.79216" lon="-1.57797">
        <ele>2</ele>
        <time>2020-09-08T15:25:01Z</time>
      </trkpt>
      <trkpt lat="48.79207" lon="-1.578">
        <ele>2</ele>
        <time>2020-09-08T15:25:08Z</time>
      </trkpt>
      <trkpt lat="48.79175" lon="-1.57776">
        <ele>4</ele>
        <time>2020-09-08T15:25:34Z</time>
      </trkpt>
      <trkpt lat="48.79147" lon="-1.57755">
        <ele>4</ele>
        <time>2020-09-08T15:25:57Z</time>
      </trkpt>
      <trkpt lat="48.79128" lon="-1.57747">
        <ele>3</ele>
        <time>2020-09-08T15:26:11Z</time>
      </trkpt>
      <trkpt lat="48.79046" lon="-1.5772">
        <ele>5</ele>
        <time>2020-09-08T15:27:12Z</time>
      </trkpt>
      <trkpt lat="48.79025" lon="-1.57728">
        <ele>2</ele>
        <time>2020-09-08T15:27:31Z</time>
      </trkpt>
      <trkpt lat="48.78996" lon="-1.57749">
        <ele>2</ele>
        <time>2020-09-08T15:27:55Z</time>
      </trkpt>
      <trkpt lat="48.78986" lon="-1.57763">
        <ele>1</ele>
        <time>2020-09-08T15:28:07Z</time>
      </trkpt>
      <trkpt lat="48.78969" lon="-1.57774">
        <ele>1</ele>
        <time>2020-09-08T15:28:24Z</time>
      </trkpt>
      <trkpt lat="48.78959" lon="-1.57783">
        <ele>-1</ele>
        <time>2020-09-08T15:32:16Z</time>
      </trkpt>
      <trkpt lat="48.78946" lon="-1.5778">
        <ele>1</ele>
        <time>2020-09-08T15:32:26Z</time>
      </trkpt>
      <trkpt lat="48.78938" lon="-1.57777">
        <ele>1</ele>
        <time>2020-09-08T15:32:34Z</time>
      </trkpt>
      <trkpt lat="48.78929" lon="-1.57769">
        <ele>2</ele>
        <time>2020-09-08T15:32:46Z</time>
      </trkpt>
      <trkpt lat="48.78921" lon="-1.57761">
        <ele>2</ele>
        <time>2020-09-08T15:32:56Z</time>
      </trkpt>
      <trkpt lat="48.78831" lon="-1.5775">
        <ele>1</ele>
        <time>2020-09-08T15:33:31Z</time>
      </trkpt>
      <trkpt lat="48.78741" lon="-1.57755">
        <ele>1</ele>
        <time>2020-09-08T15:33:59Z</time>
      </trkpt>
      <trkpt lat="48.78712" lon="-1.57742">
        <ele>2</ele>
        <time>2020-09-08T15:34:10Z</time>
      </trkpt>
      <trkpt lat="48.78613" lon="-1.57723">
        <time>2020-09-08T15:34:40Z</time>
      </trkpt>
      <trkpt lat="48.7856" lon="-1.57695">
        <time>2020-09-08T15:34:57Z</time>
      </trkpt>
      <trkpt lat="48.78536" lon="-1.57699">
        <ele>1</ele>
        <time>2020-09-08T15:35:05Z</time>
      </trkpt>
      <trkpt lat="48.78502" lon="-1.57725">
        <ele>2</ele>
        <time>2020-09-08T15:35:17Z</time>
      </trkpt>
      <trkpt lat="48.78489" lon="-1.57719">
        <ele>2</ele>
        <time>2020-09-08T15:35:31Z</time>
      </trkpt>
      <trkpt lat="48.78476" lon="-1.57721">
        <ele>-1</ele>
        <time>2020-09-08T15:47:42Z</time>
      </trkpt>
      <trkpt lat="48.78484" lon="-1.57742">
        <ele>-1</ele>
        <time>2020-09-08T15:48:01Z</time>
      </trkpt>
      <trkpt lat="48.78484" lon="-1.5773">
        <ele>-1</ele>
        <time>2020-09-08T15:53:08Z</time>
      </trkpt>
      <trkpt lat="48.78477" lon="-1.57726">
        <ele>-1</ele>
        <time>2020-09-08T15:55:09Z</time>
      </trkpt>
      <trkpt lat="48.7847" lon="-1.57733">
        <time>2020-09-08T15:55:15Z</time>
      </trkpt>
      <trkpt lat="48.7847" lon="-1.57751">
        <time>2020-09-08T15:55:26Z</time>
      </trkpt>
      <trkpt lat="48.78479" lon="-1.57756">
        <ele>-1</ele>
        <time>2020-09-08T15:55:30Z</time>
      </trkpt>
      <trkpt lat="48.78488" lon="-1.57753">
        <ele>-1</ele>
        <time>2020-09-08T15:55:34Z</time>
      </trkpt>
      <trkpt lat="48.78509" lon="-1.57739">
        <ele>-2</ele>
        <time>2020-09-08T15:55:42Z</time>
      </trkpt>
      <trkpt lat="48.78516" lon="-1.57731">
        <ele>-3</ele>
        <time>2020-09-08T15:55:45Z</time>
      </trkpt>
      <trkpt lat="48.78525" lon="-1.5773">
        <ele>-4</ele>
        <time>2020-09-08T15:55:48Z</time>
      </trkpt>
      <trkpt lat="48.78529" lon="-1.57739">
        <ele>-3</ele>
        <time>2020-09-08T15:55:51Z</time>
      </trkpt>
      <trkpt lat="48.78525" lon="-1.57751">
        <ele>-3</ele>
        <time>2020-09-08T15:55:54Z</time>
      </trkpt>
      <trkpt lat="48.78517" lon="-1.57757">
        <ele>-3</ele>
        <time>2020-09-08T15:55:56Z</time>
      </trkpt>
      <trkpt lat="48.78487" lon="-1.57749">
        <ele>-3</ele>
        <time>2020-09-08T15:56:02Z</time>
      </trkpt>
      <trkpt lat="48.78481" lon="-1.5774">
        <ele>-3</ele>
        <time>2020-09-08T15:56:04Z</time>
      </trkpt>
      <trkpt lat="48.78481" lon="-1.57726">
        <ele>-4</ele>
        <time>2020-09-08T15:56:06Z</time>
      </trkpt>
      <trkpt lat="48.78488" lon="-1.57715">
        <ele>-4</ele>
        <time>2020-09-08T15:56:08Z</time>
      </trkpt>
      <trkpt lat="48.78498" lon="-1.57715">
        <ele>-5</ele>
        <time>2020-09-08T15:56:10Z</time>
      </trkpt>
      <trkpt lat="48.78503" lon="-1.57725">
        <ele>-5</ele>
        <time>2020-09-08T15:56:12Z</time>
      </trkpt>
      <trkpt lat="48.78504" lon="-1.57738">
        <ele>-4</ele>
        <time>2020-09-08T15:56:14Z</time>
      </trkpt>
      <trkpt lat="48.78499" lon="-1.57751">
        <ele>-5</ele>
        <time>2020-09-08T15:56:16Z</time>
      </trkpt>
      <trkpt lat="48.78489" lon="-1.57754">
        <ele>-5</ele>
        <time>2020-09-08T15:56:18Z</time>
      </trkpt>
      <trkpt lat="48.78462" lon="-1.57716">
        <ele>-4</ele>
        <time>2020-09-08T15:56:27Z</time>
      </trkpt>
      <trkpt lat="48.78464" lon="-1.57702">
        <ele>-4</ele>
        <time>2020-09-08T15:56:31Z</time>
      </trkpt>
      <trkpt lat="48.78469" lon="-1.57694">
        <ele>-3</ele>
        <time>2020-09-08T15:56:34Z</time>
      </trkpt>
      <trkpt lat="48.7848" lon="-1.57693">
        <ele>-3</ele>
        <time>2020-09-08T15:56:37Z</time>
      </trkpt>
      <trkpt lat="48.7849" lon="-1.57695">
        <ele>-4</ele>
        <time>2020-09-08T15:56:39Z</time>
      </trkpt>
      <trkpt lat="48.78505" lon="-1.57707">
        <ele>-4</ele>
        <time>2020-09-08T15:56:42Z</time>
      </trkpt>
      <trkpt lat="48.78512" lon="-1.57719">
        <ele>-4</ele>
        <time>2020-09-08T15:56:44Z</time>
      </trkpt>
      <trkpt lat="48.78513" lon="-1.57735">
        <ele>-4</ele>
        <time>2020-09-08T15:56:46Z</time>
      </trkpt>
      <trkpt lat="48.78504" lon="-1.5775">
        <ele>-3</ele>
        <time>2020-09-08T15:56:48Z</time>
      </trkpt>
      <trkpt lat="48.78481" lon="-1.5775">
        <ele>-3</ele>
        <time>2020-09-08T15:56:52Z</time>
      </trkpt>
      <trkpt lat="48.78468" lon="-1.57739">
        <ele>-4</ele>
        <time>2020-09-08T15:56:55Z</time>
      </trkpt>
      <trkpt lat="48.78464" lon="-1.57727">
        <ele>-4</ele>
        <time>2020-09-08T15:56:57Z</time>
      </trkpt>
      <trkpt lat="48.78466" lon="-1.57713">
        <ele>-3</ele>
        <time>2020-09-08T15:57:21Z</time>
      </trkpt>
      <trkpt lat="48.7847" lon="-1.57702">
        <ele>-3</ele>
        <time>2020-09-08T15:57:28Z</time>
      </trkpt>
      <trkpt lat="48.78476" lon="-1.57711">
        <ele>-2</ele>
        <time>2020-09-08T15:57:37Z</time>
      </trkpt>
      <trkpt lat="48.7848" lon="-1.57701">
        <ele>-1</ele>
        <time>2020-09-08T15:57:39Z</time>
      </trkpt>
      <trkpt lat="48.78487" lon="-1.57695">
        <ele>-2</ele>
        <time>2020-09-08T15:57:41Z</time>
      </trkpt>
      <trkpt lat="48.78498" lon="-1.57699">
        <ele>-3</ele>
        <time>2020-09-08T15:57:43Z</time>
      </trkpt>
      <trkpt lat="48.78505" lon="-1.57718">
        <ele>-4</ele>
        <time>2020-09-08T15:57:46Z</time>
      </trkpt>
      <trkpt lat="48.78505" lon="-1.57734">
        <ele>-5</ele>
        <time>2020-09-08T15:57:48Z</time>
      </trkpt>
      <trkpt lat="48.78501" lon="-1.57748">
        <ele>-5</ele>
        <time>2020-09-08T15:57:50Z</time>
      </trkpt>
      <trkpt lat="48.78492" lon="-1.57758">
        <ele>-5</ele>
        <time>2020-09-08T15:57:52Z</time>
      </trkpt>
      <trkpt lat="48.78483" lon="-1.57758">
        <ele>-5</ele>
        <time>2020-09-08T15:57:54Z</time>
      </trkpt>
      <trkpt lat="48.78475" lon="-1.57749">
        <ele>-4</ele>
        <time>2020-09-08T15:57:56Z</time>
      </trkpt>
      <trkpt lat="48.78474" lon="-1.57734">
        <ele>-4</ele>
        <time>2020-09-08T15:57:58Z</time>
      </trkpt>
      <trkpt lat="48.7848" lon="-1.57723">
        <ele>-4</ele>
        <time>2020-09-08T15:58:00Z</time>
      </trkpt>
      <trkpt lat="48.78491" lon="-1.57721">
        <ele>-4</ele>
        <time>2020-09-08T15:58:02Z</time>
      </trkpt>
      <trkpt lat="48.78498" lon="-1.5773">
        <ele>-4</ele>
        <time>2020-09-08T15:58:04Z</time>
      </trkpt>
      <trkpt lat="48.78497" lon="-1.57745">
        <ele>-4</ele>
        <time>2020-09-08T15:58:06Z</time>
      </trkpt>
      <trkpt lat="48.78489" lon="-1.57755">
        <ele>-4</ele>
        <time>2020-09-08T15:58:08Z</time>
      </trkpt>
      <trkpt lat="48.78479" lon="-1.57757">
        <ele>-4</ele>
        <time>2020-09-08T15:58:10Z</time>
      </trkpt>
      <trkpt lat="48.78469" lon="-1.57751">
        <ele>-4</ele>
        <time>2020-09-08T15:58:12Z</time>
      </trkpt>
      <trkpt lat="48.78462" lon="-1.57739">
        <ele>-4</ele>
        <time>2020-09-08T15:58:14Z</time>
      </trkpt>
      <trkpt lat="48.78459" lon="-1.57726">
        <ele>-3</ele>
        <time>2020-09-08T15:58:16Z</time>
      </trkpt>
      <trkpt lat="48.7846" lon="-1.57713">
        <ele>-3</ele>
        <time>2020-09-08T15:58:19Z</time>
      </trkpt>
      <trkpt lat="48.78444" lon="-1.577">
        <ele>-2</ele>
        <time>2020-09-08T15:59:11Z</time>
      </trkpt>
      <trkpt lat="48.78439" lon="-1.57692">
        <ele>-2</ele>
        <time>2020-09-08T15:59:17Z</time>
      </trkpt>
      <trkpt lat="48.7841" lon="-1.57669">
        <ele>-2</ele>
        <time>2020-09-08T15:59:39Z</time>
      </trkpt>
      <trkpt lat="48.78375" lon="-1.57652">
        <ele>1</ele>
        <time>2020-09-08T16:00:04Z</time>
      </trkpt>
      <trkpt lat="48.78351" lon="-1.57628">
        <time>2020-09-08T16:00:24Z</time>
      </trkpt>
      <trkpt lat="48.7829" lon="-1.57596">
        <time>2020-09-08T16:01:09Z</time>
      </trkpt>
      <trkpt lat="48.78221" lon="-1.57547">
        <ele>-2</ele>
        <time>2020-09-08T16:02:07Z</time>
      </trkpt>
      <trkpt lat="48.78183" lon="-1.57536">
        <ele>-2</ele>
        <time>2020-09-08T16:02:40Z</time>
      </trkpt>
      <trkpt lat="48.78142" lon="-1.57536">
        <ele>-2</ele>
        <time>2020-09-08T16:03:10Z</time>
      </trkpt>
      <trkpt lat="48.78121" lon="-1.57532">
        <ele>-1</ele>
        <time>2020-09-08T16:03:25Z</time>
      </trkpt>
      <trkpt lat="48.78061" lon="-1.57544">
        <ele>-2</ele>
        <time>2020-09-08T16:04:11Z</time>
      </trkpt>
      <trkpt lat="48.78017" lon="-1.57547">
        <ele>-2</ele>
        <time>2020-09-08T16:04:43Z</time>
      </trkpt>
      <trkpt lat="48.77973" lon="-1.57548">
        <ele>-2</ele>
        <time>2020-09-08T16:05:16Z</time>
      </trkpt>
      <trkpt lat="48.77895" lon="-1.57555">
        <ele>-1</ele>
        <time>2020-09-08T16:06:14Z</time>
      </trkpt>
      <trkpt lat="48.77861" lon="-1.57558">
        <ele>-2</ele>
        <time>2020-09-08T16:06:40Z</time>
      </trkpt>
      <trkpt lat="48.77851" lon="-1.57556">
        <ele>-2</ele>
        <time>2020-09-08T16:06:46Z</time>
      </trkpt>
      <trkpt lat="48.77792" lon="-1.57574">
        <ele>-2</ele>
        <time>2020-09-08T16:07:29Z</time>
      </trkpt>
      <trkpt lat="48.77782" lon="-1.57582">
        <ele>-2</ele>
        <time>2020-09-08T16:07:37Z</time>
      </trkpt>
      <trkpt lat="48.77771" lon="-1.57599">
        <ele>-1</ele>
        <time>2020-09-08T16:07:49Z</time>
      </trkpt>
      <trkpt lat="48.77739" lon="-1.57637">
        <ele>-1</ele>
        <time>2020-09-08T16:08:19Z</time>
      </trkpt>
      <trkpt lat="48.77723" lon="-1.57649">
        <ele>-1</ele>
        <time>2020-09-08T16:08:34Z</time>
      </trkpt>
      <trkpt lat="48.77717" lon="-1.57674">
        <time>2020-09-08T16:08:52Z</time>
      </trkpt>
      <trkpt lat="48.77706" lon="-1.57691">
        <ele>-1</ele>
        <time>2020-09-08T16:09:06Z</time>
      </trkpt>
      <trkpt lat="48.77702" lon="-1.57705">
        <ele>-1</ele>
        <time>2020-09-08T16:09:17Z</time>
      </trkpt>
      <trkpt lat="48.77695" lon="-1.5771">
        <ele>-3</ele>
        <time>2020-09-08T16:09:31Z</time>
      </trkpt>
      <trkpt lat="48.77689" lon="-1.57718">
        <ele>-1</ele>
        <time>2020-09-08T16:10:17Z</time>
      </trkpt>
      <trkpt lat="48.77681" lon="-1.57722">
        <time>2020-09-08T16:10:44Z</time>
      </trkpt>
      <trkpt lat="48.77674" lon="-1.57718">
        <ele>-2</ele>
        <time>2020-09-08T16:11:00Z</time>
      </trkpt>
      <trkpt lat="48.77672" lon="-1.57706">
        <ele>-3</ele>
        <time>2020-09-08T16:11:07Z</time>
      </trkpt>
      <trkpt lat="48.77668" lon="-1.57672">
        <ele>-4</ele>
        <time>2020-09-08T16:11:27Z</time>
      </trkpt>
      <trkpt lat="48.77662" lon="-1.5768">
        <ele>-3</ele>
        <time>2020-09-08T16:11:40Z</time>
      </trkpt>
      <trkpt lat="48.77661" lon="-1.57691">
        <ele>-2</ele>
        <time>2020-09-08T16:12:07Z</time>
      </trkpt>
      <trkpt lat="48.77652" lon="-1.57702">
        <ele>-1</ele>
        <time>2020-09-08T16:12:32Z</time>
      </trkpt>
      <trkpt lat="48.77645" lon="-1.57706">
        <ele>-1</ele>
        <time>2020-09-08T16:12:45Z</time>
      </trkpt>
      <trkpt lat="48.77638" lon="-1.57683">
        <ele>-2</ele>
        <time>2020-09-08T16:13:06Z</time>
      </trkpt>
      <trkpt lat="48.7764" lon="-1.5766">
        <ele>-3</ele>
        <time>2020-09-08T16:13:11Z</time>
      </trkpt>
      <trkpt lat="48.77645" lon="-1.5764">
        <ele>-3</ele>
        <time>2020-09-08T16:13:16Z</time>
      </trkpt>
      <trkpt lat="48.77645" lon="-1.57628">
        <ele>-3</ele>
        <time>2020-09-08T16:13:20Z</time>
      </trkpt>
      <trkpt lat="48.77638" lon="-1.57624">
        <ele>-2</ele>
        <time>2020-09-08T16:13:26Z</time>
      </trkpt>
      <trkpt lat="48.77627" lon="-1.57611">
        <ele>-3</ele>
        <time>2020-09-08T16:13:37Z</time>
      </trkpt>
      <trkpt lat="48.77617" lon="-1.57605">
        <ele>-4</ele>
        <time>2020-09-08T16:13:46Z</time>
      </trkpt>
      <trkpt lat="48.77596" lon="-1.57595">
        <ele>-4</ele>
        <time>2020-09-08T16:14:04Z</time>
      </trkpt>
      <trkpt lat="48.7756" lon="-1.57593">
        <ele>-6</ele>
        <time>2020-09-08T16:14:32Z</time>
      </trkpt>
      <trkpt lat="48.77516" lon="-1.57578">
        <ele>-5</ele>
        <time>2020-09-08T16:15:07Z</time>
      </trkpt>
      <trkpt lat="48.77505" lon="-1.57574">
        <ele>-4</ele>
        <time>2020-09-08T16:15:16Z</time>
      </trkpt>
      <trkpt lat="48.77491" lon="-1.57571">
        <ele>-5</ele>
        <time>2020-09-08T16:15:27Z</time>
      </trkpt>
      <trkpt lat="48.77463" lon="-1.57562">
        <ele>-2</ele>
        <time>2020-09-08T16:15:49Z</time>
      </trkpt>
      <trkpt lat="48.77425" lon="-1.57559">
        <ele>-2</ele>
        <time>2020-09-08T16:16:21Z</time>
      </trkpt>
      <trkpt lat="48.77414" lon="-1.57556">
        <ele>-2</ele>
        <time>2020-09-08T16:16:30Z</time>
      </trkpt>
      <trkpt lat="48.77403" lon="-1.57558">
        <ele>-3</ele>
        <time>2020-09-08T16:16:50Z</time>
      </trkpt>
      <trkpt lat="48.77394" lon="-1.57559">
        <ele>-2</ele>
        <time>2020-09-08T16:16:57Z</time>
      </trkpt>
      <trkpt lat="48.77351" lon="-1.57545">
        <ele>-2</ele>
        <time>2020-09-08T16:17:30Z</time>
      </trkpt>
      <trkpt lat="48.77338" lon="-1.57541">
        <ele>-2</ele>
        <time>2020-09-08T16:17:41Z</time>
      </trkpt>
      <trkpt lat="48.77304" lon="-1.57552">
        <ele>-1</ele>
        <time>2020-09-08T16:18:02Z</time>
      </trkpt>
      <trkpt lat="48.77293" lon="-1.57553">
        <ele>-2</ele>
        <time>2020-09-08T16:18:07Z</time>
      </trkpt>
      <trkpt lat="48.77237" lon="-1.57547">
        <ele>-2</ele>
        <time>2020-09-08T16:18:35Z</time>
      </trkpt>
      <trkpt lat="48.7723" lon="-1.57549">
        <ele>-2</ele>
        <time>2020-09-08T16:18:41Z</time>
      </trkpt>
      <trkpt lat="48.77195" lon="-1.57546">
        <ele>-2</ele>
        <time>2020-09-08T16:19:11Z</time>
      </trkpt>
      <trkpt lat="48.77187" lon="-1.57545">
        <ele>-3</ele>
        <time>2020-09-08T16:19:18Z</time>
      </trkpt>
      <trkpt lat="48.77153" lon="-1.57541">
        <ele>-3</ele>
        <time>2020-09-08T16:19:49Z</time>
      </trkpt>
      <trkpt lat="48.77133" lon="-1.57548">
        <ele>-3</ele>
        <time>2020-09-08T16:20:07Z</time>
      </trkpt>
      <trkpt lat="48.77106" lon="-1.57547">
        <ele>-3</ele>
        <time>2020-09-08T16:20:28Z</time>
      </trkpt>
      <trkpt lat="48.77102" lon="-1.57557">
        <ele>-1</ele>
        <time>2020-09-08T16:20:35Z</time>
      </trkpt>
      <trkpt lat="48.77094" lon="-1.57554">
        <ele>-2</ele>
        <time>2020-09-08T16:20:42Z</time>
      </trkpt>
      <trkpt lat="48.77086" lon="-1.57546">
        <ele>-3</ele>
        <time>2020-09-08T16:20:50Z</time>
      </trkpt>
      <trkpt lat="48.77079" lon="-1.57539">
        <ele>-3</ele>
        <time>2020-09-08T16:20:58Z</time>
      </trkpt>
      <trkpt lat="48.7707" lon="-1.5753">
        <ele>-4</ele>
        <time>2020-09-08T16:21:07Z</time>
      </trkpt>
      <trkpt lat="48.77062" lon="-1.57526">
        <ele>-4</ele>
        <time>2020-09-08T16:21:13Z</time>
      </trkpt>
      <trkpt lat="48.77054" lon="-1.57526">
        <ele>-5</ele>
        <time>2020-09-08T16:21:19Z</time>
      </trkpt>
      <trkpt lat="48.77047" lon="-1.57528">
        <ele>-5</ele>
        <time>2020-09-08T16:21:24Z</time>
      </trkpt>
      <trkpt lat="48.77039" lon="-1.57526">
        <ele>-4</ele>
        <time>2020-09-08T16:21:29Z</time>
      </trkpt>
      <trkpt lat="48.77031" lon="-1.57529">
        <ele>-4</ele>
        <time>2020-09-08T16:21:35Z</time>
      </trkpt>
      <trkpt lat="48.77023" lon="-1.57528">
        <ele>-4</ele>
        <time>2020-09-08T16:21:41Z</time>
      </trkpt>
      <trkpt lat="48.77011" lon="-1.5753">
        <ele>-5</ele>
        <time>2020-09-08T16:21:50Z</time>
      </trkpt>
      <trkpt lat="48.76998" lon="-1.57536">
        <ele>-5</ele>
        <time>2020-09-08T16:22:01Z</time>
      </trkpt>
      <trkpt lat="48.76992" lon="-1.57527">
        <ele>-5</ele>
        <time>2020-09-08T16:22:09Z</time>
      </trkpt>
      <trkpt lat="48.76983" lon="-1.57534">
        <ele>-4</ele>
        <time>2020-09-08T16:22:16Z</time>
      </trkpt>
      <trkpt lat="48.76976" lon="-1.57534">
        <ele>-5</ele>
        <time>2020-09-08T16:22:22Z</time>
      </trkpt>
      <trkpt lat="48.76968" lon="-1.57531">
        <ele>-5</ele>
        <time>2020-09-08T16:22:28Z</time>
      </trkpt>
      <trkpt lat="48.76957" lon="-1.57523">
        <ele>-4</ele>
        <time>2020-09-08T16:22:37Z</time>
      </trkpt>
      <trkpt lat="48.76949" lon="-1.57522">
        <ele>-4</ele>
        <time>2020-09-08T16:22:43Z</time>
      </trkpt>
      <trkpt lat="48.76938" lon="-1.57517">
        <ele>-5</ele>
        <time>2020-09-08T16:22:52Z</time>
      </trkpt>
      <trkpt lat="48.76925" lon="-1.57516">
        <ele>-4</ele>
        <time>2020-09-08T16:23:02Z</time>
      </trkpt>
      <trkpt lat="48.76919" lon="-1.57523">
        <ele>-3</ele>
        <time>2020-09-08T16:23:07Z</time>
      </trkpt>
      <trkpt lat="48.76911" lon="-1.57522">
        <ele>-4</ele>
        <time>2020-09-08T16:23:15Z</time>
      </trkpt>
      <trkpt lat="48.76903" lon="-1.57523">
        <ele>-5</ele>
        <time>2020-09-08T16:23:21Z</time>
      </trkpt>
      <trkpt lat="48.76895" lon="-1.57529">
        <ele>-5</ele>
        <time>2020-09-08T16:23:28Z</time>
      </trkpt>
      <trkpt lat="48.76886" lon="-1.57531">
        <ele>-4</ele>
        <time>2020-09-08T16:23:35Z</time>
      </trkpt>
      <trkpt lat="48.76877" lon="-1.57528">
        <ele>-4</ele>
        <time>2020-09-08T16:23:42Z</time>
      </trkpt>
      <trkpt lat="48.76866" lon="-1.57529">
        <ele>-5</ele>
        <time>2020-09-08T16:23:46Z</time>
      </trkpt>
      <trkpt lat="48.76762" lon="-1.57509">
        <ele>-5</ele>
        <time>2020-09-08T16:24:21Z</time>
      </trkpt>
      <trkpt lat="48.76646" lon="-1.57494">
        <ele>-3</ele>
        <time>2020-09-08T16:24:51Z</time>
      </trkpt>
      <trkpt lat="48.76509" lon="-1.57435">
        <ele>-1</ele>
        <time>2020-09-08T16:25:30Z</time>
      </trkpt>
      <trkpt lat="48.76499" lon="-1.57433">
        <ele>-1</ele>
        <time>2020-09-08T16:25:33Z</time>
      </trkpt>
      <trkpt lat="48.76367" lon="-1.57347">
        <ele>1</ele>
        <time>2020-09-08T16:26:08Z</time>
      </trkpt>
      <trkpt lat="48.76353" lon="-1.57341">
        <ele>1</ele>
        <time>2020-09-08T16:26:11Z</time>
      </trkpt>
      <trkpt lat="48.76335" lon="-1.57343">
        <ele>2</ele>
        <time>2020-09-08T16:26:16Z</time>
      </trkpt>
      <trkpt lat="48.76317" lon="-1.57321">
        <ele>1</ele>
        <time>2020-09-08T16:26:31Z</time>
      </trkpt>
      <trkpt lat="48.76288" lon="-1.57242">
        <ele>2</ele>
        <time>2020-09-08T16:27:11Z</time>
      </trkpt>
      <trkpt lat="48.76282" lon="-1.57231">
        <ele>2</ele>
        <time>2020-09-08T16:27:18Z</time>
      </trkpt>
      <trkpt lat="48.76278" lon="-1.57219">
        <ele>2</ele>
        <time>2020-09-08T16:27:24Z</time>
      </trkpt>
      <trkpt lat="48.76264" lon="-1.57156">
        <ele>8</ele>
        <time>2020-09-08T16:27:56Z</time>
      </trkpt>
      <trkpt lat="48.76262" lon="-1.57137">
        <ele>8</ele>
        <time>2020-09-08T16:28:06Z</time>
      </trkpt>
      <trkpt lat="48.76251" lon="-1.57108">
        <ele>10</ele>
        <time>2020-09-08T16:28:20Z</time>
      </trkpt>
      <trkpt lat="48.76226" lon="-1.57014">
        <ele>9</ele>
        <time>2020-09-08T16:29:07Z</time>
      </trkpt>
      <trkpt lat="48.76207" lon="-1.56949">
        <ele>11</ele>
        <time>2020-09-08T16:29:38Z</time>
      </trkpt>
      <trkpt lat="48.76194" lon="-1.56897">
        <ele>10</ele>
        <time>2020-09-08T16:30:02Z</time>
      </trkpt>
      <trkpt lat="48.76198" lon="-1.56885">
        <ele>11</ele>
        <time>2020-09-08T16:30:32Z</time>
      </trkpt>
      <trkpt lat="48.76208" lon="-1.56883">
        <ele>10</ele>
        <time>2020-09-08T16:30:37Z</time>
      </trkpt>
      <trkpt lat="48.76229" lon="-1.56883">
        <ele>10</ele>
        <time>2020-09-08T16:30:45Z</time>
      </trkpt>
      <trkpt lat="48.76228" lon="-1.56829">
        <ele>11</ele>
        <time>2020-09-08T16:31:09Z</time>
      </trkpt>
      <trkpt lat="48.76221" lon="-1.5682">
        <ele>11</ele>
        <time>2020-09-08T16:31:15Z</time>
      </trkpt>
      <trkpt lat="48.76213" lon="-1.56821">
        <ele>11</ele>
        <time>2020-09-08T16:31:19Z</time>
      </trkpt>
      <trkpt lat="48.76176" lon="-1.56843">
        <ele>12</ele>
        <time>2020-09-08T16:31:31Z</time>
      </trkpt>
      <trkpt lat="48.76193" lon="-1.56818">
        <ele>16</ele>
        <time>2020-09-08T16:31:51Z</time>
      </trkpt>
      <trkpt lat="48.76238" lon="-1.56761">
        <ele>19</ele>
        <time>2020-09-08T16:32:17Z</time>
      </trkpt>
      <trkpt lat="48.76239" lon="-1.56748">
        <ele>19</ele>
        <time>2020-09-08T16:32:20Z</time>
      </trkpt>
      <trkpt lat="48.76199" lon="-1.56778">
        <ele>22</ele>
        <time>2020-09-08T16:32:34Z</time>
      </trkpt>
      <trkpt lat="48.76136" lon="-1.56839">
        <ele>23</ele>
        <time>2020-09-08T16:32:55Z</time>
      </trkpt>
      <trkpt lat="48.76096" lon="-1.56833">
        <ele>25</ele>
        <time>2020-09-08T16:33:06Z</time>
      </trkpt>
      <trkpt lat="48.76085" lon="-1.56822">
        <ele>25</ele>
        <time>2020-09-08T16:33:10Z</time>
      </trkpt>
      <trkpt lat="48.76061" lon="-1.56767">
        <ele>25</ele>
        <time>2020-09-08T16:33:22Z</time>
      </trkpt>
      <trkpt lat="48.76049" lon="-1.56664">
        <ele>24</ele>
        <time>2020-09-08T16:33:54Z</time>
      </trkpt>
      <trkpt lat="48.76047" lon="-1.5664">
        <ele>24</ele>
        <time>2020-09-08T16:34:05Z</time>
      </trkpt>
      <trkpt lat="48.76045" lon="-1.56612">
        <ele>23</ele>
        <time>2020-09-08T16:34:15Z</time>
      </trkpt>
      <trkpt lat="48.76041" lon="-1.56583">
        <ele>23</ele>
        <time>2020-09-08T16:34:21Z</time>
      </trkpt>
      <trkpt lat="48.76037" lon="-1.56557">
        <ele>22</ele>
        <time>2020-09-08T16:34:26Z</time>
      </trkpt>
      <trkpt lat="48.76017" lon="-1.56488">
        <ele>19</ele>
        <time>2020-09-08T16:34:42Z</time>
      </trkpt>
      <trkpt lat="48.75972" lon="-1.56432">
        <ele>-3</ele>
        <time>2020-09-08T16:35:03Z</time>
      </trkpt>
      <trkpt lat="48.75935" lon="-1.56401">
        <ele>-3</ele>
        <time>2020-09-08T16:35:32Z</time>
      </trkpt>
      <trkpt lat="48.75928" lon="-1.56398">
        <ele>-3</ele>
        <time>2020-09-08T16:35:36Z</time>
      </trkpt>
      <trkpt lat="48.75917" lon="-1.56392">
        <ele>1</ele>
        <time>2020-09-08T16:35:43Z</time>
      </trkpt>
      <trkpt lat="48.75894" lon="-1.56389">
        <ele>4</ele>
        <time>2020-09-08T16:35:56Z</time>
      </trkpt>
      <trkpt lat="48.75884" lon="-1.56387">
        <ele>4</ele>
        <time>2020-09-08T16:36:03Z</time>
      </trkpt>
      <trkpt lat="48.75849" lon="-1.5639">
        <ele>12</ele>
        <time>2020-09-08T16:36:26Z</time>
      </trkpt>
      <trkpt lat="48.75788" lon="-1.56414">
        <ele>19</ele>
        <time>2020-09-08T16:37:07Z</time>
      </trkpt>
      <trkpt lat="48.75767" lon="-1.56418">
        <ele>24</ele>
        <time>2020-09-08T16:37:22Z</time>
      </trkpt>
      <trkpt lat="48.75692" lon="-1.56402">
        <ele>25</ele>
        <time>2020-09-08T16:37:57Z</time>
      </trkpt>
      <trkpt lat="48.75645" lon="-1.56384">
        <ele>14</ele>
        <time>2020-09-08T16:38:17Z</time>
      </trkpt>
      <trkpt lat="48.75617" lon="-1.56356">
        <ele>5</ele>
        <time>2020-09-08T16:38:39Z</time>
      </trkpt>
      <trkpt lat="48.75607" lon="-1.56351">
        <ele>6</ele>
        <time>2020-09-08T16:38:45Z</time>
      </trkpt>
      <trkpt lat="48.75582" lon="-1.56325">
        <ele>9</ele>
        <time>2020-09-08T16:39:01Z</time>
      </trkpt>
      <trkpt lat="48.75545" lon="-1.56302">
        <ele>4</ele>
        <time>2020-09-08T16:39:13Z</time>
      </trkpt>
      <trkpt lat="48.7553" lon="-1.56292">
        <ele>5</ele>
        <time>2020-09-08T16:39:17Z</time>
      </trkpt>
      <trkpt lat="48.75471" lon="-1.56249">
        <ele>-1</ele>
        <time>2020-09-08T16:39:38Z</time>
      </trkpt>
      <trkpt lat="48.75464" lon="-1.56235">
        <ele>55.1</ele>
        <time>2020-09-08T16:39:42Z</time>
      </trkpt>
      <trkpt lat="48.75328" lon="-1.56078">
        <ele>-15</ele>
        <time>2020-09-08T16:40:31Z</time>
      </trkpt>
      <trkpt lat="48.75243" lon="-1.55993">
        <ele>16</ele>
        <time>2020-09-08T16:41:28Z</time>
      </trkpt>
      <trkpt lat="48.75233" lon="-1.55978">
        <ele>17</ele>
        <time>2020-09-08T16:41:37Z</time>
      </trkpt>
      <trkpt lat="48.75179" lon="-1.5593">
        <ele>32</ele>
        <time>2020-09-08T16:42:13Z</time>
      </trkpt>
      <trkpt lat="48.75127" lon="-1.55855">
        <ele>50</ele>
        <time>2020-09-08T16:42:54Z</time>
      </trkpt>
      <trkpt lat="48.75101" lon="-1.55814">
        <ele>56</ele>
        <time>2020-09-08T16:43:22Z</time>
      </trkpt>
      <trkpt lat="48.75095" lon="-1.55807">
        <ele>56</ele>
        <time>2020-09-08T16:43:28Z</time>
      </trkpt>
      <trkpt lat="48.75079" lon="-1.55787">
        <ele>58</ele>
        <time>2020-09-08T16:43:45Z</time>
      </trkpt>
      <trkpt lat="48.75093" lon="-1.55681">
        <ele>57</ele>
        <time>2020-09-08T16:44:36Z</time>
      </trkpt>
      <trkpt lat="48.75096" lon="-1.55591">
        <ele>58</ele>
        <time>2020-09-08T16:45:17Z</time>
      </trkpt>
      <trkpt lat="48.75097" lon="-1.55578">
        <ele>60</ele>
        <time>2020-09-08T16:45:23Z</time>
      </trkpt>
      <trkpt lat="48.75096" lon="-1.55551">
        <ele>60</ele>
        <time>2020-09-08T16:45:36Z</time>
      </trkpt>
      <trkpt lat="48.75093" lon="-1.55538">
        <ele>61</ele>
        <time>2020-09-08T16:45:42Z</time>
      </trkpt>
      <trkpt lat="48.75086" lon="-1.55531">
        <ele>61</ele>
        <time>2020-09-08T16:45:48Z</time>
      </trkpt>
      <trkpt lat="48.75077" lon="-1.55526">
        <ele>61</ele>
        <time>2020-09-08T16:45:55Z</time>
      </trkpt>
      <trkpt lat="48.75068" lon="-1.55527">
        <ele>61</ele>
        <time>2020-09-08T16:46:01Z</time>
      </trkpt>
      <trkpt lat="48.75056" lon="-1.55521">
        <ele>61</ele>
        <time>2020-09-08T16:46:09Z</time>
      </trkpt>
      <trkpt lat="48.75049" lon="-1.55515">
        <ele>62</ele>
        <time>2020-09-08T16:46:14Z</time>
      </trkpt>
      <trkpt lat="48.75042" lon="-1.55514">
        <ele>61</ele>
        <time>2020-09-08T16:46:19Z</time>
      </trkpt>
      <trkpt lat="48.74995" lon="-1.55489">
        <ele>64</ele>
        <time>2020-09-08T16:46:54Z</time>
      </trkpt>
      <trkpt lat="48.74996" lon="-1.55465">
        <ele>61</ele>
        <time>2020-09-08T16:47:09Z</time>
      </trkpt>
      <trkpt lat="48.74998" lon="-1.55454">
        <ele>60</ele>
        <time>2020-09-08T16:47:15Z</time>
      </trkpt>
      <trkpt lat="48.75001" lon="-1.55442">
        <ele>60</ele>
        <time>2020-09-08T16:47:21Z</time>
      </trkpt>
      <trkpt lat="48.75004" lon="-1.55417">
        <ele>62</ele>
        <time>2020-09-08T16:47:33Z</time>
      </trkpt>
      <trkpt lat="48.75012" lon="-1.55342">
        <ele>60</ele>
        <time>2020-09-08T16:48:07Z</time>
      </trkpt>
      <trkpt lat="48.75013" lon="-1.55267">
        <ele>64</ele>
        <time>2020-09-08T16:48:40Z</time>
      </trkpt>
      <trkpt lat="48.7501" lon="-1.55195">
        <ele>64</ele>
        <time>2020-09-08T16:49:11Z</time>
      </trkpt>
      <trkpt lat="48.75011" lon="-1.55138">
        <ele>65</ele>
        <time>2020-09-08T16:49:37Z</time>
      </trkpt>
      <trkpt lat="48.75008" lon="-1.55104">
        <ele>67</ele>
        <time>2020-09-08T16:49:54Z</time>
      </trkpt>
      <trkpt lat="48.75006" lon="-1.55067">
        <ele>66</ele>
        <time>2020-09-08T16:50:08Z</time>
      </trkpt>
      <trkpt lat="48.75009" lon="-1.55013">
        <ele>67</ele>
        <time>2020-09-08T16:50:19Z</time>
      </trkpt>
      <trkpt lat="48.75006" lon="-1.54955">
        <ele>66</ele>
        <time>2020-09-08T16:50:30Z</time>
      </trkpt>
      <trkpt lat="48.74998" lon="-1.5491">
        <ele>67</ele>
        <time>2020-09-08T16:50:40Z</time>
      </trkpt>
      <trkpt lat="48.75023" lon="-1.54754">
        <ele>69</ele>
        <time>2020-09-08T16:51:13Z</time>
      </trkpt>
      <trkpt lat="48.75066" lon="-1.54643">
        <ele>70</ele>
        <time>2020-09-08T16:51:43Z</time>
      </trkpt>
      <trkpt lat="48.75074" lon="-1.54625">
        <ele>70</ele>
        <time>2020-09-08T16:51:51Z</time>
      </trkpt>
      <trkpt lat="48.75086" lon="-1.546">
        <ele>66</ele>
        <time>2020-09-08T16:52:03Z</time>
      </trkpt>
      <trkpt lat="48.75104" lon="-1.54574">
        <ele>71</ele>
        <time>2020-09-08T16:52:21Z</time>
      </trkpt>
      <trkpt lat="48.75111" lon="-1.54566">
        <ele>71</ele>
        <time>2020-09-08T16:52:28Z</time>
      </trkpt>
      <trkpt lat="48.7513" lon="-1.54543">
        <ele>73</ele>
        <time>2020-09-08T16:52:45Z</time>
      </trkpt>
      <trkpt lat="48.7515" lon="-1.54488">
        <ele>70</ele>
        <time>2020-09-08T16:53:12Z</time>
      </trkpt>
      <trkpt lat="48.75155" lon="-1.54475">
        <ele>71</ele>
        <time>2020-09-08T16:53:18Z</time>
      </trkpt>
      <trkpt lat="48.75179" lon="-1.54407">
        <ele>71</ele>
        <time>2020-09-08T16:53:55Z</time>
      </trkpt>
      <trkpt lat="48.75214" lon="-1.54312">
        <ele>72</ele>
        <time>2020-09-08T16:54:47Z</time>
      </trkpt>
      <trkpt lat="48.75219" lon="-1.54297">
        <ele>74</ele>
        <time>2020-09-08T16:54:55Z</time>
      </trkpt>
      <trkpt lat="48.75233" lon="-1.54267">
        <ele>75</ele>
        <time>2020-09-08T16:55:11Z</time>
      </trkpt>
      <trkpt lat="48.7525" lon="-1.54235">
        <ele>73</ele>
        <time>2020-09-08T16:55:31Z</time>
      </trkpt>
      <trkpt lat="48.75258" lon="-1.54213">
        <ele>75</ele>
        <time>2020-09-08T16:55:43Z</time>
      </trkpt>
      <trkpt lat="48.75263" lon="-1.54205">
        <ele>75</ele>
        <time>2020-09-08T16:55:48Z</time>
      </trkpt>
      <trkpt lat="48.75267" lon="-1.54194">
        <ele>75</ele>
        <time>2020-09-08T16:55:54Z</time>
      </trkpt>
      <trkpt lat="48.75263" lon="-1.54184">
        <ele>75</ele>
        <time>2020-09-08T16:55:59Z</time>
      </trkpt>
      <trkpt lat="48.75249" lon="-1.54164">
        <ele>72</ele>
        <time>2020-09-08T16:56:17Z</time>
      </trkpt>
      <trkpt lat="48.75242" lon="-1.54156">
        <ele>73</ele>
        <time>2020-09-08T16:56:23Z</time>
      </trkpt>
      <trkpt lat="48.75211" lon="-1.54127">
        <ele>72</ele>
        <time>2020-09-08T16:56:47Z</time>
      </trkpt>
      <trkpt lat="48.75181" lon="-1.54105">
        <ele>74</ele>
        <time>2020-09-08T16:57:08Z</time>
      </trkpt>
      <trkpt lat="48.75157" lon="-1.54096">
        <ele>73</ele>
        <time>2020-09-08T16:57:24Z</time>
      </trkpt>
      <trkpt lat="48.75119" lon="-1.54071">
        <ele>74</ele>
        <time>2020-09-08T16:57:54Z</time>
      </trkpt>
      <trkpt lat="48.75055" lon="-1.54017">
        <ele>73</ele>
        <time>2020-09-08T16:58:41Z</time>
      </trkpt>
      <trkpt lat="48.75014" lon="-1.53984">
        <ele>71</ele>
        <time>2020-09-08T16:59:15Z</time>
      </trkpt>
      <trkpt lat="48.74973" lon="-1.53956">
        <ele>72</ele>
        <time>2020-09-08T16:59:49Z</time>
      </trkpt>
      <trkpt lat="48.74919" lon="-1.53934">
        <ele>70</ele>
        <time>2020-09-08T17:00:32Z</time>
      </trkpt>
      <trkpt lat="48.749" lon="-1.53927">
        <ele>70</ele>
        <time>2020-09-08T17:00:46Z</time>
      </trkpt>
      <trkpt lat="48.74892" lon="-1.53931">
        <ele>70</ele>
        <time>2020-09-08T17:00:53Z</time>
      </trkpt>
      <trkpt lat="48.74872" lon="-1.53971">
        <ele>71</ele>
        <time>2020-09-08T17:01:13Z</time>
      </trkpt>
      <trkpt lat="48.74861" lon="-1.53972">
        <ele>70</ele>
        <time>2020-09-08T17:01:22Z</time>
      </trkpt>
      <trkpt lat="48.74854" lon="-1.53968">
        <ele>69</ele>
        <time>2020-09-08T17:01:28Z</time>
      </trkpt>
      <trkpt lat="48.74838" lon="-1.53966">
        <ele>69</ele>
        <time>2020-09-08T17:01:40Z</time>
      </trkpt>
      <trkpt lat="48.74824" lon="-1.53965">
        <ele>66</ele>
        <time>2020-09-08T17:01:52Z</time>
      </trkpt>
      <trkpt lat="48.74814" lon="-1.53963">
        <ele>66</ele>
        <time>2020-09-08T17:01:59Z</time>
      </trkpt>
      <trkpt lat="48.74796" lon="-1.53968">
        <ele>66</ele>
        <time>2020-09-08T17:02:13Z</time>
      </trkpt>
      <trkpt lat="48.74788" lon="-1.53986">
        <ele>66</ele>
        <time>2020-09-08T17:02:23Z</time>
      </trkpt>
      <trkpt lat="48.74783" lon="-1.54005">
        <ele>67</ele>
        <time>2020-09-08T17:02:33Z</time>
      </trkpt>
      <trkpt lat="48.74779" lon="-1.5402">
        <ele>67</ele>
        <time>2020-09-08T17:02:42Z</time>
      </trkpt>
      <trkpt lat="48.74776" lon="-1.5403">
        <ele>68</ele>
        <time>2020-09-08T17:02:47Z</time>
      </trkpt>
      <trkpt lat="48.74769" lon="-1.54069">
        <ele>69</ele>
        <time>2020-09-08T17:03:07Z</time>
      </trkpt>
      <trkpt lat="48.74769" lon="-1.54085">
        <ele>70</ele>
        <time>2020-09-08T17:03:14Z</time>
      </trkpt>
      <trkpt lat="48.74765" lon="-1.541">
        <ele>69</ele>
        <time>2020-09-08T17:03:23Z</time>
      </trkpt>
      <trkpt lat="48.74758" lon="-1.54141">
        <ele>70</ele>
        <time>2020-09-08T17:03:44Z</time>
      </trkpt>
      <trkpt lat="48.7474" lon="-1.5417">
        <ele>70</ele>
        <time>2020-09-08T17:04:05Z</time>
      </trkpt>
      <trkpt lat="48.74732" lon="-1.54177">
        <ele>70</ele>
        <time>2020-09-08T17:04:12Z</time>
      </trkpt>
      <trkpt lat="48.74725" lon="-1.54177">
        <ele>70</ele>
        <time>2020-09-08T17:04:18Z</time>
      </trkpt>
      <trkpt lat="48.7471" lon="-1.54167">
        <ele>70</ele>
        <time>2020-09-08T17:04:31Z</time>
      </trkpt>
      <trkpt lat="48.747" lon="-1.54164">
        <ele>69</ele>
        <time>2020-09-08T17:04:39Z</time>
      </trkpt>
      <trkpt lat="48.74646" lon="-1.54126">
        <ele>69</ele>
        <time>2020-09-08T17:05:22Z</time>
      </trkpt>
      <trkpt lat="48.74592" lon="-1.54096">
        <ele>68</ele>
        <time>2020-09-08T17:06:05Z</time>
      </trkpt>
      <trkpt lat="48.74581" lon="-1.5409">
        <ele>68</ele>
        <time>2020-09-08T17:06:13Z</time>
      </trkpt>
      <trkpt lat="48.74574" lon="-1.54089">
        <ele>68</ele>
        <time>2020-09-08T17:06:19Z</time>
      </trkpt>
      <trkpt lat="48.74544" lon="-1.5408">
        <ele>66</ele>
        <time>2020-09-08T17:06:44Z</time>
      </trkpt>
      <trkpt lat="48.74537" lon="-1.54074">
        <ele>67</ele>
        <time>2020-09-08T17:06:53Z</time>
      </trkpt>
      <trkpt lat="48.74513" lon="-1.54066">
        <ele>67</ele>
        <time>2020-09-08T17:07:14Z</time>
      </trkpt>
      <trkpt lat="48.74504" lon="-1.54062">
        <ele>66</ele>
        <time>2020-09-08T17:07:21Z</time>
      </trkpt>
      <trkpt lat="48.7448" lon="-1.54039">
        <ele>63</ele>
        <time>2020-09-08T17:07:47Z</time>
      </trkpt>
      <trkpt lat="48.74444" lon="-1.53992">
        <ele>63</ele>
        <time>2020-09-08T17:08:17Z</time>
      </trkpt>
      <trkpt lat="48.74436" lon="-1.53982">
        <ele>64</ele>
        <time>2020-09-08T17:08:25Z</time>
      </trkpt>
      <trkpt lat="48.74425" lon="-1.5397">
        <ele>64</ele>
        <time>2020-09-08T17:08:35Z</time>
      </trkpt>
      <trkpt lat="48.74419" lon="-1.53961">
        <ele>65</ele>
        <time>2020-09-08T17:08:41Z</time>
      </trkpt>
      <trkpt lat="48.74394" lon="-1.53938">
        <ele>65</ele>
        <time>2020-09-08T17:09:03Z</time>
      </trkpt>
      <trkpt lat="48.74379" lon="-1.53926">
        <ele>67</ele>
        <time>2020-09-08T17:09:16Z</time>
      </trkpt>
      <trkpt lat="48.74343" lon="-1.53903">
        <ele>67</ele>
        <time>2020-09-08T17:09:46Z</time>
      </trkpt>
      <trkpt lat="48.74326" lon="-1.53889">
        <ele>68</ele>
        <time>2020-09-08T17:10:03Z</time>
      </trkpt>
      <trkpt lat="48.74285" lon="-1.53867">
        <ele>68</ele>
        <time>2020-09-08T17:10:32Z</time>
      </trkpt>
      <trkpt lat="48.74277" lon="-1.53867">
        <ele>67</ele>
        <time>2020-09-08T17:10:36Z</time>
      </trkpt>
      <trkpt lat="48.74253" lon="-1.53868">
        <ele>67</ele>
        <time>2020-09-08T17:12:13Z</time>
      </trkpt>
      <trkpt lat="48.74245" lon="-1.53869">
        <ele>68</ele>
        <time>2020-09-08T17:12:25Z</time>
      </trkpt>
      <trkpt lat="48.74229" lon="-1.53866">
        <ele>66</ele>
        <time>2020-09-08T17:12:44Z</time>
      </trkpt>
      <trkpt lat="48.74146" lon="-1.53851">
        <ele>67</ele>
        <time>2020-09-08T17:13:59Z</time>
      </trkpt>
      <trkpt lat="48.74105" lon="-1.53845">
        <ele>66</ele>
        <time>2020-09-08T17:14:37Z</time>
      </trkpt>
      <trkpt lat="48.741" lon="-1.53834">
        <ele>65</ele>
        <time>2020-09-08T17:14:47Z</time>
      </trkpt>
      <trkpt lat="48.74115" lon="-1.5383">
        <ele>62</ele>
        <time>2020-09-08T17:15:05Z</time>
      </trkpt>
    </trkseg>
  </trk>
</gpx>